<?xml version='1.0' encoding='UTF-8'?><gpx version="1.1" creator="JPX - https://github.com/jenetics/jpx" xmlns="http://www.topografix.com/GPX/1/1"><trk><trkseg><trkpt lat="43.7536523" lon="11.198216"><ele>49.0</ele><time>2026-04-18T08:28:31.708Z</time></trkpt><trkpt lat="43.7536744" lon="11.1983725"><ele>49.0</ele><time>2026-04-18T08:28:33.709Z</time></trkpt><trkpt lat="43.7537112" lon="11.1984808"><ele>49.0</ele><time>2026-04-18T08:28:34.709Z</time></trkpt><trkpt lat="43.7537482" lon="11.1986064"><ele>49.0</ele><time>2026-04-18T08:28:35.708Z</time></trkpt><trkpt lat="43.753784" lon="11.1987576"><ele>49.0</ele><time>2026-04-18T08:28:36.708Z</time></trkpt><trkpt lat="43.7538341" lon="11.198906"><ele>48.800000000000004</ele><time>2026-04-18T08:28:37.708Z</time></trkpt><trkpt lat="43.7538863" lon="11.1990524"><ele>48.6</ele><time>2026-04-18T08:28:38.708Z</time></trkpt><trkpt lat="43.7539257" lon="11.1991913"><ele>48.4</ele><time>2026-04-18T08:28:39.707Z</time></trkpt><trkpt lat="43.7539642" lon="11.199317"><ele>48.2</ele><time>2026-04-18T08:28:40.709Z</time></trkpt><trkpt lat="43.7540076" lon="11.1994251"><ele>48.0</ele><time>2026-04-18T08:28:41.709Z</time></trkpt><trkpt lat="43.7540512" lon="11.1995412"><ele>48.0</ele><time>2026-04-18T08:28:42.709Z</time></trkpt><trkpt lat="43.7540967" lon="11.1996707"><ele>48.0</ele><time>2026-04-18T08:28:43.709Z</time></trkpt><trkpt lat="43.7541364" lon="11.1998155"><ele>48.0</ele><time>2026-04-18T08:28:44.709Z</time></trkpt><trkpt lat="43.7541828" lon="11.1999648"><ele>48.0</ele><time>2026-04-18T08:28:45.707Z</time></trkpt><trkpt lat="43.754224" lon="11.2001146"><ele>48.0</ele><time>2026-04-18T08:28:46.708Z</time></trkpt><trkpt lat="43.7542696" lon="11.2002577"><ele>48.2</ele><time>2026-04-18T08:28:47.708Z</time></trkpt><trkpt lat="43.754309" lon="11.2003883"><ele>48.4</ele><time>2026-04-18T08:28:48.708Z</time></trkpt><trkpt lat="43.7543427" lon="11.2005049"><ele>48.6</ele><time>2026-04-18T08:28:49.708Z</time></trkpt><trkpt lat="43.7543705" lon="11.2005986"><ele>48.800000000000004</ele><time>2026-04-18T08:28:50.709Z</time></trkpt><trkpt lat="43.7543808" lon="11.200741"><ele>49.0</ele><time>2026-04-18T08:28:52.709Z</time></trkpt><trkpt lat="43.7542914" lon="11.2007971"><ele>50.25</ele><time>2026-04-18T08:28:54.709Z</time></trkpt><trkpt lat="43.7541326" lon="11.2007238"><ele>51.5</ele><time>2026-04-18T08:28:55.708Z</time></trkpt><trkpt lat="43.7540073" lon="11.2007188"><ele>52.75</ele><time>2026-04-18T08:28:56.709Z</time></trkpt><trkpt lat="43.7538748" lon="11.2007372"><ele>54.0</ele><time>2026-04-18T08:28:57.709Z</time></trkpt><trkpt lat="43.753741" lon="11.200777"><ele>54.0</ele><time>2026-04-18T08:28:58.708Z</time></trkpt><trkpt lat="43.7535964" lon="11.2008564"><ele>54.0</ele><time>2026-04-18T08:28:59.708Z</time></trkpt><trkpt lat="43.7534374" lon="11.2009441"><ele>54.0</ele><time>2026-04-18T08:29:00.709Z</time></trkpt><trkpt lat="43.7533343" lon="11.2011172"><ele>54.25</ele><time>2026-04-18T08:29:01.709Z</time></trkpt><trkpt lat="43.7532374" lon="11.2012657"><ele>54.5</ele><time>2026-04-18T08:29:02.707Z</time></trkpt><trkpt lat="43.753165" lon="11.2014349"><ele>54.75</ele><time>2026-04-18T08:29:03.708Z</time></trkpt><trkpt lat="43.7531041" lon="11.2016148"><ele>55.0</ele><time>2026-04-18T08:29:04.709Z</time></trkpt><trkpt lat="43.7530521" lon="11.2018228"><ele>55.0</ele><time>2026-04-18T08:29:05.708Z</time></trkpt><trkpt lat="43.7529944" lon="11.2020402"><ele>55.0</ele><time>2026-04-18T08:29:06.709Z</time></trkpt><trkpt lat="43.752931" lon="11.2022587"><ele>55.0</ele><time>2026-04-18T08:29:07.708Z</time></trkpt><trkpt lat="43.7528668" lon="11.2024515"><ele>55.0</ele><time>2026-04-18T08:29:08.708Z</time></trkpt><trkpt lat="43.7527757" lon="11.202606"><ele>55.0</ele><time>2026-04-18T08:29:09.709Z</time></trkpt><trkpt lat="43.7526702" lon="11.2027278"><ele>55.0</ele><time>2026-04-18T08:29:10.709Z</time></trkpt><trkpt lat="43.7525509" lon="11.2028149"><ele>55.0</ele><time>2026-04-18T08:29:11.708Z</time></trkpt><trkpt lat="43.7524276" lon="11.2029079"><ele>54.75</ele><time>2026-04-18T08:29:12.709Z</time></trkpt><trkpt lat="43.7523208" lon="11.2030316"><ele>54.5</ele><time>2026-04-18T08:29:13.709Z</time></trkpt><trkpt lat="43.7522324" lon="11.2031886"><ele>54.25</ele><time>2026-04-18T08:29:14.708Z</time></trkpt><trkpt lat="43.7521595" lon="11.2033815"><ele>54.0</ele><time>2026-04-18T08:29:15.707Z</time></trkpt><trkpt lat="43.7520936" lon="11.2035945"><ele>54.0</ele><time>2026-04-18T08:29:16.709Z</time></trkpt><trkpt lat="43.752035" lon="11.2038201"><ele>54.0</ele><time>2026-04-18T08:29:17.709Z</time></trkpt><trkpt lat="43.7519922" lon="11.2040635"><ele>54.0</ele><time>2026-04-18T08:29:18.709Z</time></trkpt><trkpt lat="43.7519531" lon="11.2043249"><ele>53.66666666666667</ele><time>2026-04-18T08:29:19.708Z</time></trkpt><trkpt lat="43.7519043" lon="11.2045937"><ele>53.333333333333336</ele><time>2026-04-18T08:29:20.708Z</time></trkpt><trkpt lat="43.7518381" lon="11.2048656"><ele>53.0</ele><time>2026-04-18T08:29:21.708Z</time></trkpt><trkpt lat="43.7517527" lon="11.2051239"><ele>53.0</ele><time>2026-04-18T08:29:22.708Z</time></trkpt><trkpt lat="43.7516435" lon="11.2053543"><ele>53.0</ele><time>2026-04-18T08:29:23.708Z</time></trkpt><trkpt lat="43.7515379" lon="11.2055824"><ele>53.0</ele><time>2026-04-18T08:29:24.708Z</time></trkpt><trkpt lat="43.7514302" lon="11.205809"><ele>55.0</ele><time>2026-04-18T08:29:25.709Z</time></trkpt><trkpt lat="43.7513196" lon="11.2060304"><ele>57.0</ele><time>2026-04-18T08:29:26.709Z</time></trkpt><trkpt lat="43.7512058" lon="11.2062367"><ele>59.0</ele><time>2026-04-18T08:29:27.708Z</time></trkpt><trkpt lat="43.7510888" lon="11.2064216"><ele>57.333333333333336</ele><time>2026-04-18T08:29:28.708Z</time></trkpt><trkpt lat="43.7509549" lon="11.2065801"><ele>55.66666666666667</ele><time>2026-04-18T08:29:29.709Z</time></trkpt><trkpt lat="43.7508019" lon="11.2067001"><ele>54.0</ele><time>2026-04-18T08:29:30.709Z</time></trkpt><trkpt lat="43.7506447" lon="11.2068177"><ele>54.0</ele><time>2026-04-18T08:29:31.708Z</time></trkpt><trkpt lat="43.7504777" lon="11.2069275"><ele>54.0</ele><time>2026-04-18T08:29:32.709Z</time></trkpt><trkpt lat="43.7503053" lon="11.2070457"><ele>54.0</ele><time>2026-04-18T08:29:33.709Z</time></trkpt><trkpt lat="43.7501343" lon="11.2071658"><ele>52.33333333333333</ele><time>2026-04-18T08:29:34.708Z</time></trkpt><trkpt lat="43.7499699" lon="11.2072843"><ele>50.666666666666664</ele><time>2026-04-18T08:29:35.708Z</time></trkpt><trkpt lat="43.7498098" lon="11.2073997"><ele>49.0</ele><time>2026-04-18T08:29:36.709Z</time></trkpt><trkpt lat="43.74965" lon="11.2075185"><ele>49.33333333333333</ele><time>2026-04-18T08:29:37.708Z</time></trkpt><trkpt lat="43.7495028" lon="11.2076255"><ele>49.66666666666667</ele><time>2026-04-18T08:29:38.708Z</time></trkpt><trkpt lat="43.7493586" lon="11.2077258"><ele>50.0</ele><time>2026-04-18T08:29:39.708Z</time></trkpt><trkpt lat="43.7492392" lon="11.2077936"><ele>50.00000000000001</ele><time>2026-04-18T08:29:40.708Z</time></trkpt><trkpt lat="43.7491407" lon="11.2078522"><ele>50.0</ele><time>2026-04-18T08:29:41.709Z</time></trkpt><trkpt lat="43.7490548" lon="11.2078942"><ele>50.0</ele><time>2026-04-18T08:29:42.709Z</time></trkpt><trkpt lat="43.7489922" lon="11.2079485"><ele>50.0</ele><time>2026-04-18T08:29:43.708Z</time></trkpt><trkpt lat="43.7489922" lon="11.2080782"><ele>50.00000000000001</ele><time>2026-04-18T08:29:45.709Z</time></trkpt><trkpt lat="43.7490213" lon="11.2081746"><ele>50.0</ele><time>2026-04-18T08:29:46.708Z</time></trkpt><trkpt lat="43.7490581" lon="11.2082794"><ele>52.5</ele><time>2026-04-18T08:29:47.708Z</time></trkpt><trkpt lat="43.7490936" lon="11.2084228"><ele>55.0</ele><time>2026-04-18T08:29:48.708Z</time></trkpt><trkpt lat="43.7491698" lon="11.2085966"><ele>57.5</ele><time>2026-04-18T08:29:49.708Z</time></trkpt><trkpt lat="43.7492195" lon="11.2087466"><ele>60.0</ele><time>2026-04-18T08:29:50.708Z</time></trkpt><trkpt lat="43.749266" lon="11.2089093"><ele>62.0</ele><time>2026-04-18T08:29:51.708Z</time></trkpt><trkpt lat="43.7493119" lon="11.2090637"><ele>64.0</ele><time>2026-04-18T08:29:52.709Z</time></trkpt><trkpt lat="43.7493448" lon="11.2092171"><ele>66.0</ele><time>2026-04-18T08:29:53.709Z</time></trkpt><trkpt lat="43.7493135" lon="11.2093143"><ele>68.0</ele><time>2026-04-18T08:29:54.709Z</time></trkpt><trkpt lat="43.7493125" lon="11.2094456"><ele>70.0</ele><time>2026-04-18T08:29:55.708Z</time></trkpt><trkpt lat="43.7493019" lon="11.2095652"><ele>70.0</ele><time>2026-04-18T08:29:56.708Z</time></trkpt><trkpt lat="43.7492787" lon="11.2096966"><ele>70.0</ele><time>2026-04-18T08:29:57.709Z</time></trkpt><trkpt lat="43.7492298" lon="11.2097539"><ele>70.0</ele><time>2026-04-18T08:29:58.709Z</time></trkpt><trkpt lat="43.7491944" lon="11.2098349"><ele>70.0</ele><time>2026-04-18T08:29:59.709Z</time></trkpt><trkpt lat="43.7491694" lon="11.2099664"><ele>70.0</ele><time>2026-04-18T08:30:07.708Z</time></trkpt><trkpt lat="43.7490764" lon="11.21015"><ele>72.4</ele><time>2026-04-18T08:30:09.709Z</time></trkpt><trkpt lat="43.7490173" lon="11.2102563"><ele>74.8</ele><time>2026-04-18T08:30:10.709Z</time></trkpt><trkpt lat="43.7489692" lon="11.2103486"><ele>77.19999999999999</ele><time>2026-04-18T08:30:11.708Z</time></trkpt><trkpt lat="43.7489182" lon="11.2104674"><ele>79.6</ele><time>2026-04-18T08:30:12.708Z</time></trkpt><trkpt lat="43.7488832" lon="11.2105742"><ele>82.0</ele><time>2026-04-18T08:30:13.708Z</time></trkpt><trkpt lat="43.7488483" lon="11.2106926"><ele>83.8</ele><time>2026-04-18T08:30:15.709Z</time></trkpt><trkpt lat="43.7488406" lon="11.2108367"><ele>85.6</ele><time>2026-04-18T08:30:17.709Z</time></trkpt><trkpt lat="43.7488608" lon="11.2109308"><ele>87.39999999999999</ele><time>2026-04-18T08:30:18.709Z</time></trkpt><trkpt lat="43.7489025" lon="11.2110414"><ele>89.19999999999999</ele><time>2026-04-18T08:30:19.709Z</time></trkpt><trkpt lat="43.748946" lon="11.2111512"><ele>91.0</ele><time>2026-04-18T08:30:20.708Z</time></trkpt><trkpt lat="43.7489964" lon="11.2112673"><ele>91.0</ele><time>2026-04-18T08:30:21.709Z</time></trkpt><trkpt lat="43.7490418" lon="11.2113587"><ele>91.0</ele><time>2026-04-18T08:30:22.709Z</time></trkpt><trkpt lat="43.7490878" lon="11.2114503"><ele>91.0</ele><time>2026-04-18T08:30:23.708Z</time></trkpt><trkpt lat="43.7491565" lon="11.2115018"><ele>91.0</ele><time>2026-04-18T08:30:24.709Z</time></trkpt><trkpt lat="43.7492259" lon="11.2115678"><ele>91.0</ele><time>2026-04-18T08:30:25.707Z</time></trkpt><trkpt lat="43.7493026" lon="11.2116583"><ele>91.0</ele><time>2026-04-18T08:30:26.709Z</time></trkpt><trkpt lat="43.749389" lon="11.2117719"><ele>93.0</ele><time>2026-04-18T08:30:27.708Z</time></trkpt><trkpt lat="43.7494833" lon="11.2118596"><ele>95.0</ele><time>2026-04-18T08:30:28.708Z</time></trkpt><trkpt lat="43.7495513" lon="11.2119485"><ele>97.0</ele><time>2026-04-18T08:30:29.709Z</time></trkpt><trkpt lat="43.7496172" lon="11.2120382"><ele>99.0</ele><time>2026-04-18T08:30:30.708Z</time></trkpt><trkpt lat="43.7496735" lon="11.2120895"><ele>101.0</ele><time>2026-04-18T08:30:31.709Z</time></trkpt><trkpt lat="43.7497781" lon="11.2121143"><ele>100.99999999999999</ele><time>2026-04-18T08:30:33.709Z</time></trkpt><trkpt lat="43.7498107" lon="11.2121994"><ele>101.0</ele><time>2026-04-18T08:30:34.709Z</time></trkpt><trkpt lat="43.749862" lon="11.2122504"><ele>101.0</ele><time>2026-04-18T08:30:35.708Z</time></trkpt><trkpt lat="43.7498511" lon="11.212344"><ele>101.0</ele><time>2026-04-18T08:30:36.707Z</time></trkpt><trkpt lat="43.7498016" lon="11.21251"><ele>100.99999999999999</ele><time>2026-04-18T08:30:38.707Z</time></trkpt><trkpt lat="43.7497639" lon="11.2126132"><ele>101.0</ele><time>2026-04-18T08:30:39.709Z</time></trkpt><trkpt lat="43.7497265" lon="11.2127153"><ele>103.16666666666666</ele><time>2026-04-18T08:30:40.708Z</time></trkpt><trkpt lat="43.7496919" lon="11.2127948"><ele>105.33333333333333</ele><time>2026-04-18T08:30:41.709Z</time></trkpt><trkpt lat="43.7496602" lon="11.2128757"><ele>107.5</ele><time>2026-04-18T08:30:42.709Z</time></trkpt><trkpt lat="43.7496405" lon="11.2129998"><ele>109.66666666666666</ele><time>2026-04-18T08:30:44.709Z</time></trkpt><trkpt lat="43.7496483" lon="11.2131823"><ele>111.83333333333333</ele><time>2026-04-18T08:30:46.709Z</time></trkpt><trkpt lat="43.7496444" lon="11.2132845"><ele>114.0</ele><time>2026-04-18T08:30:47.708Z</time></trkpt><trkpt lat="43.7496447" lon="11.2134098"><ele>115.6</ele><time>2026-04-18T08:30:48.708Z</time></trkpt><trkpt lat="43.7496552" lon="11.2135324"><ele>117.2</ele><time>2026-04-18T08:30:49.708Z</time></trkpt><trkpt lat="43.7496667" lon="11.2136535"><ele>118.79999999999998</ele><time>2026-04-18T08:30:50.709Z</time></trkpt><trkpt lat="43.7496903" lon="11.2137542"><ele>120.39999999999999</ele><time>2026-04-18T08:30:51.709Z</time></trkpt><trkpt lat="43.7496831" lon="11.2138745"><ele>122.0</ele><time>2026-04-18T08:30:53.709Z</time></trkpt><trkpt lat="43.7496058" lon="11.2140071"><ele>123.83333333333333</ele><time>2026-04-18T08:30:55.709Z</time></trkpt><trkpt lat="43.7495593" lon="11.2140913"><ele>125.66666666666666</ele><time>2026-04-18T08:30:56.709Z</time></trkpt><trkpt lat="43.7495079" lon="11.2141669"><ele>127.5</ele><time>2026-04-18T08:30:57.709Z</time></trkpt><trkpt lat="43.7494753" lon="11.2142563"><ele>129.33333333333334</ele><time>2026-04-18T08:31:00.708Z</time></trkpt><trkpt lat="43.7495643" lon="11.2143907"><ele>131.16666666666669</ele><time>2026-04-18T08:31:03.709Z</time></trkpt><trkpt lat="43.7496205" lon="11.214457"><ele>133.0</ele><time>2026-04-18T08:31:04.709Z</time></trkpt><trkpt lat="43.749704" lon="11.2145334"><ele>133.0</ele><time>2026-04-18T08:31:05.709Z</time></trkpt><trkpt lat="43.7497696" lon="11.2145846"><ele>133.0</ele><time>2026-04-18T08:31:06.707Z</time></trkpt><trkpt lat="43.7498302" lon="11.21466"><ele>133.0</ele><time>2026-04-18T08:31:07.709Z</time></trkpt><trkpt lat="43.7498763" lon="11.2147623"><ele>133.0</ele><time>2026-04-18T08:31:08.709Z</time></trkpt><trkpt lat="43.7499346" lon="11.2148746"><ele>133.0</ele><time>2026-04-18T08:31:09.709Z</time></trkpt><trkpt lat="43.7499803" lon="11.2149636"><ele>133.0</ele><time>2026-04-18T08:31:10.708Z</time></trkpt><trkpt lat="43.750051" lon="11.2150886"><ele>134.5</ele><time>2026-04-18T08:31:12.708Z</time></trkpt><trkpt lat="43.7499815" lon="11.2152094"><ele>136.0</ele><time>2026-04-18T08:31:14.708Z</time></trkpt><trkpt lat="43.749936" lon="11.2152807"><ele>137.5</ele><time>2026-04-18T08:31:15.708Z</time></trkpt><trkpt lat="43.7498856" lon="11.2153613"><ele>139.0</ele><time>2026-04-18T08:31:16.708Z</time></trkpt><trkpt lat="43.7498356" lon="11.2154609"><ele>140.5</ele><time>2026-04-18T08:31:17.707Z</time></trkpt><trkpt lat="43.7497988" lon="11.215547"><ele>142.0</ele><time>2026-04-18T08:31:18.708Z</time></trkpt><trkpt lat="43.7497131" lon="11.2156311"><ele>143.83333333333334</ele><time>2026-04-18T08:31:19.709Z</time></trkpt><trkpt lat="43.7496737" lon="11.215744"><ele>145.66666666666669</ele><time>2026-04-18T08:31:22.708Z</time></trkpt><trkpt lat="43.7497114" lon="11.2158301"><ele>147.5</ele><time>2026-04-18T08:31:23.709Z</time></trkpt><trkpt lat="43.7497675" lon="11.2159423"><ele>149.33333333333334</ele><time>2026-04-18T08:31:24.709Z</time></trkpt><trkpt lat="43.7498137" lon="11.2160499"><ele>151.16666666666666</ele><time>2026-04-18T08:31:25.708Z</time></trkpt><trkpt lat="43.749845" lon="11.2161452"><ele>153.0</ele><time>2026-04-18T08:31:26.709Z</time></trkpt><trkpt lat="43.7498697" lon="11.2162561"><ele>153.0</ele><time>2026-04-18T08:31:27.708Z</time></trkpt><trkpt lat="43.749887" lon="11.2163682"><ele>153.0</ele><time>2026-04-18T08:31:28.709Z</time></trkpt><trkpt lat="43.7499006" lon="11.2164683"><ele>153.0</ele><time>2026-04-18T08:31:29.708Z</time></trkpt><trkpt lat="43.7499405" lon="11.2165413"><ele>153.0</ele><time>2026-04-18T08:31:30.709Z</time></trkpt><trkpt lat="43.7500021" lon="11.216603"><ele>153.0</ele><time>2026-04-18T08:31:31.707Z</time></trkpt><trkpt lat="43.7500816" lon="11.2166589"><ele>153.0</ele><time>2026-04-18T08:31:32.709Z</time></trkpt><trkpt lat="43.75019" lon="11.2167"><ele>153.4</ele><time>2026-04-18T08:31:33.708Z</time></trkpt><trkpt lat="43.7503181" lon="11.2167332"><ele>153.8</ele><time>2026-04-18T08:31:34.709Z</time></trkpt><trkpt lat="43.7504295" lon="11.2167757"><ele>154.2</ele><time>2026-04-18T08:31:35.709Z</time></trkpt><trkpt lat="43.7505428" lon="11.2168175"><ele>154.6</ele><time>2026-04-18T08:31:36.709Z</time></trkpt><trkpt lat="43.7506057" lon="11.2168585"><ele>155.0</ele><time>2026-04-18T08:31:37.709Z</time></trkpt><trkpt lat="43.7506944" lon="11.2168933"><ele>155.0</ele><time>2026-04-18T08:31:40.709Z</time></trkpt><trkpt lat="43.75082" lon="11.2169982"><ele>155.0</ele><time>2026-04-18T08:31:42.708Z</time></trkpt><trkpt lat="43.7508967" lon="11.2170763"><ele>155.0</ele><time>2026-04-18T08:31:43.708Z</time></trkpt><trkpt lat="43.750978" lon="11.2171168"><ele>155.0</ele><time>2026-04-18T08:31:44.709Z</time></trkpt><trkpt lat="43.751077" lon="11.2171493"><ele>155.0</ele><time>2026-04-18T08:31:45.708Z</time></trkpt><trkpt lat="43.7511816" lon="11.217181"><ele>153.6</ele><time>2026-04-18T08:31:46.707Z</time></trkpt><trkpt lat="43.7512897" lon="11.2172165"><ele>152.2</ele><time>2026-04-18T08:31:47.709Z</time></trkpt><trkpt lat="43.7513966" lon="11.217254"><ele>150.8</ele><time>2026-04-18T08:31:48.708Z</time></trkpt><trkpt lat="43.7515004" lon="11.2172884"><ele>149.4</ele><time>2026-04-18T08:31:49.708Z</time></trkpt><trkpt lat="43.7515999" lon="11.2173138"><ele>148.0</ele><time>2026-04-18T08:31:50.709Z</time></trkpt><trkpt lat="43.7517005" lon="11.217344"><ele>147.8</ele><time>2026-04-18T08:31:51.709Z</time></trkpt><trkpt lat="43.7518031" lon="11.2173588"><ele>147.60000000000002</ele><time>2026-04-18T08:31:52.709Z</time></trkpt><trkpt lat="43.7519186" lon="11.2173956"><ele>147.39999999999998</ele><time>2026-04-18T08:31:53.707Z</time></trkpt><trkpt lat="43.7520194" lon="11.217425"><ele>147.2</ele><time>2026-04-18T08:31:54.708Z</time></trkpt><trkpt lat="43.7521188" lon="11.2174597"><ele>147.0</ele><time>2026-04-18T08:31:55.708Z</time></trkpt><trkpt lat="43.7522239" lon="11.2174967"><ele>146.5</ele><time>2026-04-18T08:31:56.709Z</time></trkpt><trkpt lat="43.7523341" lon="11.2175575"><ele>146.0</ele><time>2026-04-18T08:31:57.709Z</time></trkpt><trkpt lat="43.7524452" lon="11.2176255"><ele>145.5</ele><time>2026-04-18T08:31:58.709Z</time></trkpt><trkpt lat="43.7525565" lon="11.2176979"><ele>145.0</ele><time>2026-04-18T08:31:59.708Z</time></trkpt><trkpt lat="43.7526676" lon="11.2177705"><ele>143.75</ele><time>2026-04-18T08:32:00.708Z</time></trkpt><trkpt lat="43.7527723" lon="11.2178335"><ele>142.5</ele><time>2026-04-18T08:32:01.709Z</time></trkpt><trkpt lat="43.7528913" lon="11.2179125"><ele>141.25</ele><time>2026-04-18T08:32:02.708Z</time></trkpt><trkpt lat="43.7530115" lon="11.2179911"><ele>140.0</ele><time>2026-04-18T08:32:03.709Z</time></trkpt><trkpt lat="43.753128" lon="11.2180713"><ele>138.75</ele><time>2026-04-18T08:32:04.708Z</time></trkpt><trkpt lat="43.7532412" lon="11.2181606"><ele>137.5</ele><time>2026-04-18T08:32:05.709Z</time></trkpt><trkpt lat="43.7533514" lon="11.2182438"><ele>136.25</ele><time>2026-04-18T08:32:06.709Z</time></trkpt><trkpt lat="43.7534434" lon="11.2183331"><ele>135.0</ele><time>2026-04-18T08:32:07.709Z</time></trkpt><trkpt lat="43.7535253" lon="11.218422"><ele>134.8</ele><time>2026-04-18T08:32:08.708Z</time></trkpt><trkpt lat="43.7535995" lon="11.2185196"><ele>134.6</ele><time>2026-04-18T08:32:09.709Z</time></trkpt><trkpt lat="43.7536794" lon="11.2186145"><ele>134.4</ele><time>2026-04-18T08:32:10.709Z</time></trkpt><trkpt lat="43.7537616" lon="11.2187079"><ele>134.2</ele><time>2026-04-18T08:32:11.709Z</time></trkpt><trkpt lat="43.7538494" lon="11.2187925"><ele>134.0</ele><time>2026-04-18T08:32:12.708Z</time></trkpt><trkpt lat="43.7539219" lon="11.218874"><ele>134.0</ele><time>2026-04-18T08:32:13.709Z</time></trkpt><trkpt lat="43.753989" lon="11.2189544"><ele>134.0</ele><time>2026-04-18T08:32:14.708Z</time></trkpt><trkpt lat="43.754042" lon="11.219061"><ele>134.0</ele><time>2026-04-18T08:32:15.708Z</time></trkpt><trkpt lat="43.7540989" lon="11.2191973"><ele>134.0</ele><time>2026-04-18T08:32:16.709Z</time></trkpt><trkpt lat="43.7541449" lon="11.2193605"><ele>134.0</ele><time>2026-04-18T08:32:17.708Z</time></trkpt><trkpt lat="43.7541849" lon="11.2195433"><ele>133.5</ele><time>2026-04-18T08:32:18.709Z</time></trkpt><trkpt lat="43.7542237" lon="11.2197167"><ele>133.0</ele><time>2026-04-18T08:32:19.708Z</time></trkpt><trkpt lat="43.7542538" lon="11.2198843"><ele>132.5</ele><time>2026-04-18T08:32:20.708Z</time></trkpt><trkpt lat="43.754282" lon="11.2200537"><ele>132.0</ele><time>2026-04-18T08:32:21.708Z</time></trkpt><trkpt lat="43.7543133" lon="11.2202154"><ele>131.0</ele><time>2026-04-18T08:32:22.708Z</time></trkpt><trkpt lat="43.7543542" lon="11.2203689"><ele>130.0</ele><time>2026-04-18T08:32:23.709Z</time></trkpt><trkpt lat="43.754401" lon="11.2205181"><ele>129.0</ele><time>2026-04-18T08:32:24.709Z</time></trkpt><trkpt lat="43.7544573" lon="11.2206707"><ele>128.0</ele><time>2026-04-18T08:32:25.709Z</time></trkpt><trkpt lat="43.7545261" lon="11.220833"><ele>126.25</ele><time>2026-04-18T08:32:26.709Z</time></trkpt><trkpt lat="43.7546034" lon="11.2210009"><ele>124.5</ele><time>2026-04-18T08:32:27.707Z</time></trkpt><trkpt lat="43.7546849" lon="11.221166"><ele>122.75</ele><time>2026-04-18T08:32:28.708Z</time></trkpt><trkpt lat="43.7547707" lon="11.2213292"><ele>121.0</ele><time>2026-04-18T08:32:29.709Z</time></trkpt><trkpt lat="43.7548594" lon="11.2214803"><ele>120.25</ele><time>2026-04-18T08:32:30.709Z</time></trkpt><trkpt lat="43.7549378" lon="11.2216307"><ele>119.5</ele><time>2026-04-18T08:32:31.708Z</time></trkpt><trkpt lat="43.7550141" lon="11.2217717"><ele>118.75</ele><time>2026-04-18T08:32:32.708Z</time></trkpt><trkpt lat="43.7550907" lon="11.2219032"><ele>118.0</ele><time>2026-04-18T08:32:33.708Z</time></trkpt><trkpt lat="43.7551733" lon="11.2220202"><ele>117.0</ele><time>2026-04-18T08:32:34.708Z</time></trkpt><trkpt lat="43.7552593" lon="11.2221466"><ele>116.0</ele><time>2026-04-18T08:32:35.709Z</time></trkpt><trkpt lat="43.7553723" lon="11.2222687"><ele>115.0</ele><time>2026-04-18T08:32:36.709Z</time></trkpt><trkpt lat="43.7554829" lon="11.2223967"><ele>114.0</ele><time>2026-04-18T08:32:37.709Z</time></trkpt><trkpt lat="43.7555862" lon="11.2225306"><ele>113.0</ele><time>2026-04-18T08:32:38.708Z</time></trkpt><trkpt lat="43.7556787" lon="11.2226779"><ele>112.0</ele><time>2026-04-18T08:32:39.707Z</time></trkpt><trkpt lat="43.7557788" lon="11.2228282"><ele>111.0</ele><time>2026-04-18T08:32:40.709Z</time></trkpt><trkpt lat="43.7558868" lon="11.2229905"><ele>110.0</ele><time>2026-04-18T08:32:41.709Z</time></trkpt><trkpt lat="43.7559875" lon="11.2231701"><ele>108.66666666666666</ele><time>2026-04-18T08:32:42.709Z</time></trkpt><trkpt lat="43.7560864" lon="11.2233455"><ele>107.33333333333334</ele><time>2026-04-18T08:32:43.709Z</time></trkpt><trkpt lat="43.7561817" lon="11.2235066"><ele>106.0</ele><time>2026-04-18T08:32:44.708Z</time></trkpt><trkpt lat="43.7562741" lon="11.2236566"><ele>106.0</ele><time>2026-04-18T08:32:45.709Z</time></trkpt><trkpt lat="43.7563743" lon="11.223798"><ele>106.0</ele><time>2026-04-18T08:32:46.709Z</time></trkpt><trkpt lat="43.7564724" lon="11.2239407"><ele>106.0</ele><time>2026-04-18T08:32:47.709Z</time></trkpt><trkpt lat="43.7565589" lon="11.2240736"><ele>106.0</ele><time>2026-04-18T08:32:48.708Z</time></trkpt><trkpt lat="43.7566374" lon="11.2242053"><ele>106.0</ele><time>2026-04-18T08:32:49.708Z</time></trkpt><trkpt lat="43.7567133" lon="11.2243477"><ele>106.0</ele><time>2026-04-18T08:32:50.708Z</time></trkpt><trkpt lat="43.7567817" lon="11.2244959"><ele>106.0</ele><time>2026-04-18T08:32:51.708Z</time></trkpt><trkpt lat="43.7568516" lon="11.2246346"><ele>106.0</ele><time>2026-04-18T08:32:52.708Z</time></trkpt><trkpt lat="43.756925" lon="11.2247573"><ele>106.16666666666667</ele><time>2026-04-18T08:32:53.709Z</time></trkpt><trkpt lat="43.7569931" lon="11.2248578"><ele>106.33333333333334</ele><time>2026-04-18T08:32:54.709Z</time></trkpt><trkpt lat="43.757051" lon="11.2249509"><ele>106.5</ele><time>2026-04-18T08:32:55.709Z</time></trkpt><trkpt lat="43.7570838" lon="11.2250544"><ele>106.66666666666666</ele><time>2026-04-18T08:32:56.709Z</time></trkpt><trkpt lat="43.757093" lon="11.2251455"><ele>106.83333333333333</ele><time>2026-04-18T08:32:57.709Z</time></trkpt><trkpt lat="43.7570747" lon="11.2252546"><ele>107.0</ele><time>2026-04-18T08:32:58.709Z</time></trkpt><trkpt lat="43.7570371" lon="11.2253814"><ele>107.0</ele><time>2026-04-18T08:32:59.709Z</time></trkpt><trkpt lat="43.7569757" lon="11.2255297"><ele>107.0</ele><time>2026-04-18T08:33:00.708Z</time></trkpt><trkpt lat="43.7569149" lon="11.2256977"><ele>107.0</ele><time>2026-04-18T08:33:01.709Z</time></trkpt><trkpt lat="43.7568439" lon="11.2258532"><ele>107.0</ele><time>2026-04-18T08:33:02.709Z</time></trkpt><trkpt lat="43.7567867" lon="11.22599"><ele>108.49999999999999</ele><time>2026-04-18T08:33:03.708Z</time></trkpt><trkpt lat="43.7567393" lon="11.2261"><ele>110.0</ele><time>2026-04-18T08:33:04.708Z</time></trkpt><trkpt lat="43.7567076" lon="11.2261869"><ele>111.5</ele><time>2026-04-18T08:33:05.708Z</time></trkpt><trkpt lat="43.756743" lon="11.2262966"><ele>113.0</ele><time>2026-04-18T08:33:29.709Z</time></trkpt><trkpt lat="43.7567876" lon="11.2263731"><ele>114.49999999999999</ele><time>2026-04-18T08:33:30.709Z</time></trkpt><trkpt lat="43.7568516" lon="11.2264309"><ele>116.0</ele><time>2026-04-18T08:33:31.708Z</time></trkpt><trkpt lat="43.7569233" lon="11.2265065"><ele>116.0</ele><time>2026-04-18T08:33:32.708Z</time></trkpt><trkpt lat="43.7570047" lon="11.2265769"><ele>116.0</ele><time>2026-04-18T08:33:33.708Z</time></trkpt><trkpt lat="43.7570955" lon="11.2266558"><ele>116.0</ele><time>2026-04-18T08:33:34.709Z</time></trkpt><trkpt lat="43.7572014" lon="11.2267328"><ele>116.0</ele><time>2026-04-18T08:33:35.709Z</time></trkpt><trkpt lat="43.7573032" lon="11.2268016"><ele>116.0</ele><time>2026-04-18T08:33:36.708Z</time></trkpt><trkpt lat="43.7573988" lon="11.2268734"><ele>116.0</ele><time>2026-04-18T08:33:37.708Z</time></trkpt><trkpt lat="43.7574933" lon="11.2269372"><ele>116.0</ele><time>2026-04-18T08:33:38.708Z</time></trkpt><trkpt lat="43.7575732" lon="11.22701"><ele>116.0</ele><time>2026-04-18T08:33:39.708Z</time></trkpt><trkpt lat="43.7576515" lon="11.227099"><ele>116.0</ele><time>2026-04-18T08:33:40.708Z</time></trkpt><trkpt lat="43.7577223" lon="11.2271802"><ele>116.0</ele><time>2026-04-18T08:33:41.708Z</time></trkpt><trkpt lat="43.7577883" lon="11.2272627"><ele>115.33333333333333</ele><time>2026-04-18T08:33:42.708Z</time></trkpt><trkpt lat="43.7578577" lon="11.2273483"><ele>114.66666666666666</ele><time>2026-04-18T08:33:43.708Z</time></trkpt><trkpt lat="43.757915" lon="11.2274354"><ele>114.0</ele><time>2026-04-18T08:33:44.709Z</time></trkpt><trkpt lat="43.757967" lon="11.2275234"><ele>113.33333333333334</ele><time>2026-04-18T08:33:45.709Z</time></trkpt><trkpt lat="43.7580259" lon="11.2275877"><ele>112.66666666666667</ele><time>2026-04-18T08:33:46.708Z</time></trkpt><trkpt lat="43.7581152" lon="11.2276419"><ele>112.0</ele><time>2026-04-18T08:33:47.708Z</time></trkpt><trkpt lat="43.7582136" lon="11.2276994"><ele>112.0</ele><time>2026-04-18T08:33:48.708Z</time></trkpt><trkpt lat="43.7583238" lon="11.2277684"><ele>112.0</ele><time>2026-04-18T08:33:49.707Z</time></trkpt><trkpt lat="43.7584364" lon="11.2278552"><ele>112.0</ele><time>2026-04-18T08:33:50.708Z</time></trkpt><trkpt lat="43.7585374" lon="11.2279626"><ele>112.0</ele><time>2026-04-18T08:33:51.709Z</time></trkpt><trkpt lat="43.7586318" lon="11.2280904"><ele>110.25</ele><time>2026-04-18T08:33:52.709Z</time></trkpt><trkpt lat="43.7587141" lon="11.2282412"><ele>108.5</ele><time>2026-04-18T08:33:53.709Z</time></trkpt><trkpt lat="43.7587994" lon="11.2284014"><ele>106.75</ele><time>2026-04-18T08:33:54.708Z</time></trkpt><trkpt lat="43.7588816" lon="11.2285857"><ele>105.0</ele><time>2026-04-18T08:33:55.709Z</time></trkpt><trkpt lat="43.7589722" lon="11.2287627"><ele>105.0</ele><time>2026-04-18T08:33:56.708Z</time></trkpt><trkpt lat="43.7590526" lon="11.2289333"><ele>105.0</ele><time>2026-04-18T08:33:57.709Z</time></trkpt><trkpt lat="43.7591306" lon="11.2290959"><ele>105.0</ele><time>2026-04-18T08:33:58.709Z</time></trkpt><trkpt lat="43.759206" lon="11.2292629"><ele>105.0</ele><time>2026-04-18T08:33:59.709Z</time></trkpt><trkpt lat="43.7592533" lon="11.2294495"><ele>105.0</ele><time>2026-04-18T08:34:00.708Z</time></trkpt><trkpt lat="43.7593012" lon="11.2296292"><ele>105.0</ele><time>2026-04-18T08:34:01.709Z</time></trkpt><trkpt lat="43.7593381" lon="11.2298015"><ele>105.0</ele><time>2026-04-18T08:34:02.708Z</time></trkpt><trkpt lat="43.7593656" lon="11.2299665"><ele>105.0</ele><time>2026-04-18T08:34:03.707Z</time></trkpt><trkpt lat="43.7593637" lon="11.2301186"><ele>105.0</ele><time>2026-04-18T08:34:04.709Z</time></trkpt><trkpt lat="43.759341" lon="11.2302665"><ele>105.0</ele><time>2026-04-18T08:34:05.707Z</time></trkpt><trkpt lat="43.7592931" lon="11.2303943"><ele>105.0</ele><time>2026-04-18T08:34:06.708Z</time></trkpt><trkpt lat="43.759222" lon="11.2305202"><ele>105.0</ele><time>2026-04-18T08:34:07.709Z</time></trkpt><trkpt lat="43.7591175" lon="11.2306664"><ele>105.66666666666666</ele><time>2026-04-18T08:34:08.707Z</time></trkpt><trkpt lat="43.7589962" lon="11.2308358"><ele>106.33333333333333</ele><time>2026-04-18T08:34:09.708Z</time></trkpt><trkpt lat="43.7588809" lon="11.2309902"><ele>107.0</ele><time>2026-04-18T08:34:10.709Z</time></trkpt><trkpt lat="43.7587766" lon="11.2311365"><ele>107.0</ele><time>2026-04-18T08:34:11.709Z</time></trkpt><trkpt lat="43.7586973" lon="11.231299"><ele>107.0</ele><time>2026-04-18T08:34:12.708Z</time></trkpt><trkpt lat="43.7586317" lon="11.2314848"><ele>107.0</ele><time>2026-04-18T08:34:13.708Z</time></trkpt><trkpt lat="43.7585926" lon="11.231679"><ele>107.0</ele><time>2026-04-18T08:34:14.708Z</time></trkpt><trkpt lat="43.7585765" lon="11.2318598"><ele>107.8</ele><time>2026-04-18T08:34:15.709Z</time></trkpt><trkpt lat="43.7585722" lon="11.2320212"><ele>108.6</ele><time>2026-04-18T08:34:16.709Z</time></trkpt><trkpt lat="43.7585741" lon="11.2321688"><ele>109.39999999999999</ele><time>2026-04-18T08:34:17.709Z</time></trkpt><trkpt lat="43.7585894" lon="11.2323102"><ele>110.19999999999999</ele><time>2026-04-18T08:34:18.708Z</time></trkpt><trkpt lat="43.7586005" lon="11.2324516"><ele>111.0</ele><time>2026-04-18T08:34:19.709Z</time></trkpt><trkpt lat="43.7586135" lon="11.2326104"><ele>111.6</ele><time>2026-04-18T08:34:20.709Z</time></trkpt><trkpt lat="43.7586269" lon="11.2327603"><ele>112.19999999999999</ele><time>2026-04-18T08:34:21.709Z</time></trkpt><trkpt lat="43.7586395" lon="11.2329115"><ele>112.80000000000001</ele><time>2026-04-18T08:34:22.709Z</time></trkpt><trkpt lat="43.758645" lon="11.2330492"><ele>113.4</ele><time>2026-04-18T08:34:23.708Z</time></trkpt><trkpt lat="43.7586562" lon="11.2331778"><ele>114.0</ele><time>2026-04-18T08:34:24.708Z</time></trkpt><trkpt lat="43.7586591" lon="11.2332978"><ele>114.0</ele><time>2026-04-18T08:34:25.708Z</time></trkpt><trkpt lat="43.7586605" lon="11.2334059"><ele>114.0</ele><time>2026-04-18T08:34:26.708Z</time></trkpt><trkpt lat="43.7586822" lon="11.2335072"><ele>114.0</ele><time>2026-04-18T08:34:27.708Z</time></trkpt><trkpt lat="43.7587283" lon="11.2336091"><ele>114.0</ele><time>2026-04-18T08:34:28.709Z</time></trkpt><trkpt lat="43.7587876" lon="11.2337173"><ele>114.0</ele><time>2026-04-18T08:34:29.709Z</time></trkpt><trkpt lat="43.7588724" lon="11.2338234"><ele>114.0</ele><time>2026-04-18T08:34:30.708Z</time></trkpt><trkpt lat="43.7589625" lon="11.2339167"><ele>114.0</ele><time>2026-04-18T08:34:31.709Z</time></trkpt><trkpt lat="43.7590381" lon="11.2340163"><ele>114.0</ele><time>2026-04-18T08:34:32.709Z</time></trkpt><trkpt lat="43.7591066" lon="11.2341056"><ele>114.0</ele><time>2026-04-18T08:34:33.709Z</time></trkpt><trkpt lat="43.759168" lon="11.2341933"><ele>114.0</ele><time>2026-04-18T08:34:34.709Z</time></trkpt><trkpt lat="43.7592206" lon="11.2342897"><ele>114.4</ele><time>2026-04-18T08:34:35.709Z</time></trkpt><trkpt lat="43.7592785" lon="11.2343806"><ele>114.80000000000001</ele><time>2026-04-18T08:34:36.709Z</time></trkpt><trkpt lat="43.7593375" lon="11.2344602"><ele>115.19999999999999</ele><time>2026-04-18T08:34:37.708Z</time></trkpt><trkpt lat="43.7594376" lon="11.2344873"><ele>115.6</ele><time>2026-04-18T08:34:38.709Z</time></trkpt><trkpt lat="43.7595103" lon="11.2345364"><ele>116.0</ele><time>2026-04-18T08:34:39.709Z</time></trkpt><trkpt lat="43.7596231" lon="11.2345341"><ele>113.6</ele><time>2026-04-18T08:34:40.709Z</time></trkpt><trkpt lat="43.7597274" lon="11.2345349"><ele>111.19999999999999</ele><time>2026-04-18T08:34:41.709Z</time></trkpt><trkpt lat="43.7598309" lon="11.2345486"><ele>108.80000000000001</ele><time>2026-04-18T08:34:42.708Z</time></trkpt><trkpt lat="43.7599292" lon="11.2345652"><ele>106.4</ele><time>2026-04-18T08:34:43.708Z</time></trkpt><trkpt lat="43.7600005" lon="11.2346771"><ele>104.0</ele><time>2026-04-18T08:34:44.708Z</time></trkpt><trkpt lat="43.7600826" lon="11.2347755"><ele>104.0</ele><time>2026-04-18T08:34:45.708Z</time></trkpt><trkpt lat="43.7601555" lon="11.2348828"><ele>104.0</ele><time>2026-04-18T08:34:46.709Z</time></trkpt><trkpt lat="43.7602242" lon="11.234998"><ele>104.0</ele><time>2026-04-18T08:34:47.709Z</time></trkpt><trkpt lat="43.7602783" lon="11.2351308"><ele>104.0</ele><time>2026-04-18T08:34:48.709Z</time></trkpt><trkpt lat="43.7603317" lon="11.2352622"><ele>104.0</ele><time>2026-04-18T08:34:49.709Z</time></trkpt><trkpt lat="43.7603842" lon="11.2354028"><ele>101.80000000000001</ele><time>2026-04-18T08:34:50.708Z</time></trkpt><trkpt lat="43.7603429" lon="11.2355731"><ele>99.60000000000001</ele><time>2026-04-18T08:34:51.709Z</time></trkpt><trkpt lat="43.7603596" lon="11.2357045"><ele>97.4</ele><time>2026-04-18T08:34:52.709Z</time></trkpt><trkpt lat="43.7603725" lon="11.2358414"><ele>95.2</ele><time>2026-04-18T08:34:53.709Z</time></trkpt><trkpt lat="43.760399" lon="11.2359761"><ele>93.0</ele><time>2026-04-18T08:34:54.709Z</time></trkpt><trkpt lat="43.7604336" lon="11.2361069"><ele>91.5</ele><time>2026-04-18T08:34:55.709Z</time></trkpt><trkpt lat="43.7604833" lon="11.2362454"><ele>90.0</ele><time>2026-04-18T08:34:56.709Z</time></trkpt><trkpt lat="43.7605583" lon="11.2363933"><ele>88.5</ele><time>2026-04-18T08:34:57.709Z</time></trkpt><trkpt lat="43.7606426" lon="11.2365485"><ele>87.0</ele><time>2026-04-18T08:34:58.709Z</time></trkpt><trkpt lat="43.7607356" lon="11.2367015"><ele>86.25</ele><time>2026-04-18T08:34:59.708Z</time></trkpt><trkpt lat="43.7608229" lon="11.2368522"><ele>85.5</ele><time>2026-04-18T08:35:00.709Z</time></trkpt><trkpt lat="43.7609042" lon="11.237001"><ele>84.75</ele><time>2026-04-18T08:35:01.709Z</time></trkpt><trkpt lat="43.7609874" lon="11.2371515"><ele>84.0</ele><time>2026-04-18T08:35:02.708Z</time></trkpt><trkpt lat="43.7610844" lon="11.2373214"><ele>82.5</ele><time>2026-04-18T08:35:03.708Z</time></trkpt><trkpt lat="43.7611741" lon="11.2374948"><ele>81.0</ele><time>2026-04-18T08:35:04.708Z</time></trkpt><trkpt lat="43.761266" lon="11.2376591"><ele>79.5</ele><time>2026-04-18T08:35:05.708Z</time></trkpt><trkpt lat="43.761362" lon="11.2377902"><ele>78.0</ele><time>2026-04-18T08:35:06.709Z</time></trkpt><trkpt lat="43.7614631" lon="11.2378977"><ele>78.0</ele><time>2026-04-18T08:35:07.708Z</time></trkpt><trkpt lat="43.7615594" lon="11.2379851"><ele>78.0</ele><time>2026-04-18T08:35:08.708Z</time></trkpt><trkpt lat="43.7616352" lon="11.2380449"><ele>78.0</ele><time>2026-04-18T08:35:09.708Z</time></trkpt><trkpt lat="43.7617006" lon="11.2381235"><ele>78.0</ele><time>2026-04-18T08:35:10.708Z</time></trkpt><trkpt lat="43.761744" lon="11.2382149"><ele>78.0</ele><time>2026-04-18T08:35:11.709Z</time></trkpt><trkpt lat="43.761751" lon="11.2384024"><ele>80.0</ele><time>2026-04-18T08:35:12.709Z</time></trkpt><trkpt lat="43.7616482" lon="11.2385986"><ele>82.0</ele><time>2026-04-18T08:35:13.708Z</time></trkpt><trkpt lat="43.7615401" lon="11.2387575"><ele>84.0</ele><time>2026-04-18T08:35:14.708Z</time></trkpt><trkpt lat="43.761463" lon="11.2389348"><ele>81.5</ele><time>2026-04-18T08:35:15.708Z</time></trkpt><trkpt lat="43.7613995" lon="11.2391068"><ele>79.0</ele><time>2026-04-18T08:35:16.708Z</time></trkpt><trkpt lat="43.7613398" lon="11.239272"><ele>76.5</ele><time>2026-04-18T08:35:17.708Z</time></trkpt><trkpt lat="43.7612455" lon="11.2394114"><ele>74.0</ele><time>2026-04-18T08:35:18.709Z</time></trkpt><trkpt lat="43.7611778" lon="11.2395188"><ele>74.0</ele><time>2026-04-18T08:35:19.708Z</time></trkpt><trkpt lat="43.7611195" lon="11.239599"><ele>74.0</ele><time>2026-04-18T08:35:21.708Z</time></trkpt><trkpt lat="43.7611448" lon="11.2396973"><ele>74.0</ele><time>2026-04-18T08:35:25.709Z</time></trkpt><trkpt lat="43.7612091" lon="11.2397084"><ele>74.0</ele><time>2026-04-18T08:35:26.708Z</time></trkpt><trkpt lat="43.7613038" lon="11.2397068"><ele>74.0</ele><time>2026-04-18T08:35:27.708Z</time></trkpt><trkpt lat="43.7613956" lon="11.2397096"><ele>74.0</ele><time>2026-04-18T08:35:28.708Z</time></trkpt><trkpt lat="43.7615356" lon="11.239689"><ele>74.0</ele><time>2026-04-18T08:35:29.708Z</time></trkpt><trkpt lat="43.7616689" lon="11.2396801"><ele>74.0</ele><time>2026-04-18T08:35:30.709Z</time></trkpt><trkpt lat="43.7617982" lon="11.2396622"><ele>74.0</ele><time>2026-04-18T08:35:31.709Z</time></trkpt><trkpt lat="43.7619202" lon="11.2396455"><ele>74.0</ele><time>2026-04-18T08:35:32.709Z</time></trkpt><trkpt lat="43.762033" lon="11.2396431"><ele>73.0</ele><time>2026-04-18T08:35:33.708Z</time></trkpt><trkpt lat="43.7621474" lon="11.239631"><ele>72.0</ele><time>2026-04-18T08:35:34.709Z</time></trkpt><trkpt lat="43.7622327" lon="11.239614"><ele>71.0</ele><time>2026-04-18T08:35:35.708Z</time></trkpt><trkpt lat="43.7623526" lon="11.23965"><ele>70.0</ele><time>2026-04-18T08:35:37.709Z</time></trkpt><trkpt lat="43.7623544" lon="11.2398998"><ele>67.0</ele><time>2026-04-18T08:35:39.708Z</time></trkpt><trkpt lat="43.7623664" lon="11.2400732"><ele>64.0</ele><time>2026-04-18T08:35:40.709Z</time></trkpt><trkpt lat="43.7623756" lon="11.240268"><ele>61.0</ele><time>2026-04-18T08:35:41.709Z</time></trkpt><trkpt lat="43.7623837" lon="11.2404489"><ele>58.0</ele><time>2026-04-18T08:35:42.709Z</time></trkpt><trkpt lat="43.7623915" lon="11.2406163"><ele>57.2</ele><time>2026-04-18T08:35:43.708Z</time></trkpt><trkpt lat="43.7623961" lon="11.2407593"><ele>56.4</ele><time>2026-04-18T08:35:44.709Z</time></trkpt><trkpt lat="43.7624034" lon="11.240888"><ele>55.60000000000001</ele><time>2026-04-18T08:35:45.709Z</time></trkpt><trkpt lat="43.7624115" lon="11.2409966"><ele>54.800000000000004</ele><time>2026-04-18T08:35:46.709Z</time></trkpt><trkpt lat="43.762399" lon="11.2411085"><ele>54.0</ele><time>2026-04-18T08:35:48.708Z</time></trkpt><trkpt lat="43.762318" lon="11.2411859"><ele>54.0</ele><time>2026-04-18T08:35:51.708Z</time></trkpt><trkpt lat="43.7621932" lon="11.2412148"><ele>54.0</ele><time>2026-04-18T08:35:52.707Z</time></trkpt><trkpt lat="43.7620568" lon="11.241245"><ele>54.0</ele><time>2026-04-18T08:35:53.708Z</time></trkpt><trkpt lat="43.7619303" lon="11.241265"><ele>54.0</ele><time>2026-04-18T08:35:54.708Z</time></trkpt><trkpt lat="43.7618045" lon="11.2412933"><ele>55.0</ele><time>2026-04-18T08:35:55.708Z</time></trkpt><trkpt lat="43.7615359" lon="11.2413567"><ele>56.0</ele><time>2026-04-18T08:35:57.709Z</time></trkpt><trkpt lat="43.761444" lon="11.2413391"><ele>57.0</ele><time>2026-04-18T08:35:58.709Z</time></trkpt><trkpt lat="43.7613324" lon="11.2413419"><ele>57.0</ele><time>2026-04-18T08:35:59.708Z</time></trkpt><trkpt lat="43.7612471" lon="11.2413072"><ele>57.0</ele><time>2026-04-18T08:36:00.709Z</time></trkpt><trkpt lat="43.7611738" lon="11.241325"><ele>57.0</ele><time>2026-04-18T08:36:01.709Z</time></trkpt><trkpt lat="43.7610892" lon="11.2413333"><ele>57.0</ele><time>2026-04-18T08:36:02.709Z</time></trkpt><trkpt lat="43.7610157" lon="11.2413584"><ele>57.0</ele><time>2026-04-18T08:36:03.708Z</time></trkpt><trkpt lat="43.7609353" lon="11.2413807"><ele>57.0</ele><time>2026-04-18T08:36:05.709Z</time></trkpt><trkpt lat="43.7608756" lon="11.24143"><ele>57.0</ele><time>2026-04-18T08:36:18.709Z</time></trkpt><trkpt lat="43.7607306" lon="11.2414972"><ele>57.0</ele><time>2026-04-18T08:36:20.709Z</time></trkpt><trkpt lat="43.7606218" lon="11.2415113"><ele>57.0</ele><time>2026-04-18T08:36:21.709Z</time></trkpt><trkpt lat="43.7605289" lon="11.2415281"><ele>57.0</ele><time>2026-04-18T08:36:22.707Z</time></trkpt><trkpt lat="43.7604376" lon="11.2415417"><ele>57.0</ele><time>2026-04-18T08:36:23.708Z</time></trkpt><trkpt lat="43.7603621" lon="11.2415743"><ele>57.0</ele><time>2026-04-18T08:36:24.709Z</time></trkpt><trkpt lat="43.7602854" lon="11.2416592"><ele>57.0</ele><time>2026-04-18T08:36:25.709Z</time></trkpt><trkpt lat="43.7602057" lon="11.2417578"><ele>57.0</ele><time>2026-04-18T08:36:26.709Z</time></trkpt><trkpt lat="43.7601127" lon="11.24184"><ele>57.0</ele><time>2026-04-18T08:36:27.709Z</time></trkpt><trkpt lat="43.7600163" lon="11.2419167"><ele>57.0</ele><time>2026-04-18T08:36:28.709Z</time></trkpt><trkpt lat="43.7599106" lon="11.2419773"><ele>57.0</ele><time>2026-04-18T08:36:29.708Z</time></trkpt><trkpt lat="43.7598061" lon="11.242041"><ele>57.0</ele><time>2026-04-18T08:36:30.709Z</time></trkpt><trkpt lat="43.7596824" lon="11.242125"><ele>57.0</ele><time>2026-04-18T08:36:31.708Z</time></trkpt><trkpt lat="43.7595527" lon="11.2421962"><ele>57.0</ele><time>2026-04-18T08:36:32.708Z</time></trkpt><trkpt lat="43.7593831" lon="11.2422708"><ele>59.33333333333333</ele><time>2026-04-18T08:36:33.707Z</time></trkpt><trkpt lat="43.7592249" lon="11.242355"><ele>61.666666666666664</ele><time>2026-04-18T08:36:34.709Z</time></trkpt><trkpt lat="43.7590591" lon="11.2424374"><ele>64.0</ele><time>2026-04-18T08:36:35.709Z</time></trkpt><trkpt lat="43.7589029" lon="11.2425178"><ele>64.0</ele><time>2026-04-18T08:36:36.709Z</time></trkpt><trkpt lat="43.7587727" lon="11.242592"><ele>64.0</ele><time>2026-04-18T08:36:37.707Z</time></trkpt><trkpt lat="43.7586379" lon="11.2426566"><ele>64.0</ele><time>2026-04-18T08:36:38.708Z</time></trkpt><trkpt lat="43.7584894" lon="11.2427391"><ele>64.0</ele><time>2026-04-18T08:36:39.708Z</time></trkpt><trkpt lat="43.7583436" lon="11.2428247"><ele>65.66666666666666</ele><time>2026-04-18T08:36:40.708Z</time></trkpt><trkpt lat="43.7581535" lon="11.2429413"><ele>67.33333333333333</ele><time>2026-04-18T08:36:41.707Z</time></trkpt><trkpt lat="43.7579798" lon="11.2430317"><ele>69.0</ele><time>2026-04-18T08:36:42.709Z</time></trkpt><trkpt lat="43.7578327" lon="11.2431389"><ele>70.66666666666667</ele><time>2026-04-18T08:36:43.709Z</time></trkpt><trkpt lat="43.7576927" lon="11.243205"><ele>72.33333333333334</ele><time>2026-04-18T08:36:44.708Z</time></trkpt><trkpt lat="43.7575423" lon="11.2432833"><ele>74.0</ele><time>2026-04-18T08:36:45.708Z</time></trkpt><trkpt lat="43.7573704" lon="11.2433524"><ele>74.0</ele><time>2026-04-18T08:36:46.707Z</time></trkpt><trkpt lat="43.7571945" lon="11.2434253"><ele>74.0</ele><time>2026-04-18T08:36:47.708Z</time></trkpt><trkpt lat="43.757015" lon="11.2435203"><ele>74.0</ele><time>2026-04-18T08:36:48.708Z</time></trkpt><trkpt lat="43.7568355" lon="11.2436203"><ele>76.0</ele><time>2026-04-18T08:36:49.708Z</time></trkpt><trkpt lat="43.7566575" lon="11.2437159"><ele>78.0</ele><time>2026-04-18T08:36:50.708Z</time></trkpt><trkpt lat="43.7564739" lon="11.2438077"><ele>80.0</ele><time>2026-04-18T08:36:51.708Z</time></trkpt><trkpt lat="43.7562925" lon="11.2439008"><ele>81.0</ele><time>2026-04-18T08:36:52.708Z</time></trkpt><trkpt lat="43.756117" lon="11.2439866"><ele>82.0</ele><time>2026-04-18T08:36:53.709Z</time></trkpt><trkpt lat="43.7559403" lon="11.2440807"><ele>83.0</ele><time>2026-04-18T08:36:54.708Z</time></trkpt><trkpt lat="43.7557812" lon="11.244157"><ele>86.33333333333334</ele><time>2026-04-18T08:36:55.708Z</time></trkpt><trkpt lat="43.7556147" lon="11.2442371"><ele>89.66666666666667</ele><time>2026-04-18T08:36:56.708Z</time></trkpt><trkpt lat="43.7554531" lon="11.2443104"><ele>93.0</ele><time>2026-04-18T08:36:57.708Z</time></trkpt><trkpt lat="43.7553065" lon="11.2443915"><ele>96.0</ele><time>2026-04-18T08:36:58.708Z</time></trkpt><trkpt lat="43.755167" lon="11.2444826"><ele>99.0</ele><time>2026-04-18T08:36:59.708Z</time></trkpt><trkpt lat="43.755031" lon="11.2445731"><ele>102.0</ele><time>2026-04-18T08:37:00.708Z</time></trkpt><trkpt lat="43.7548671" lon="11.24465"><ele>102.0</ele><time>2026-04-18T08:37:01.708Z</time></trkpt><trkpt lat="43.7547029" lon="11.2447283"><ele>102.0</ele><time>2026-04-18T08:37:02.708Z</time></trkpt><trkpt lat="43.7545384" lon="11.2448249"><ele>102.0</ele><time>2026-04-18T08:37:03.708Z</time></trkpt><trkpt lat="43.7543609" lon="11.2449163"><ele>104.0</ele><time>2026-04-18T08:37:04.708Z</time></trkpt><trkpt lat="43.7541921" lon="11.2450149"><ele>106.0</ele><time>2026-04-18T08:37:05.708Z</time></trkpt><trkpt lat="43.7540325" lon="11.2450956"><ele>108.0</ele><time>2026-04-18T08:37:06.708Z</time></trkpt><trkpt lat="43.7538869" lon="11.2451652"><ele>108.0</ele><time>2026-04-18T08:37:07.708Z</time></trkpt><trkpt lat="43.7537522" lon="11.2452359"><ele>108.0</ele><time>2026-04-18T08:37:08.709Z</time></trkpt><trkpt lat="43.7536324" lon="11.2452936"><ele>108.0</ele><time>2026-04-18T08:37:09.709Z</time></trkpt><trkpt lat="43.7535211" lon="11.2453533"><ele>108.0</ele><time>2026-04-18T08:37:10.708Z</time></trkpt><trkpt lat="43.7534296" lon="11.2453996"><ele>107.66666666666667</ele><time>2026-04-18T08:37:11.707Z</time></trkpt><trkpt lat="43.7533616" lon="11.2454384"><ele>107.33333333333334</ele><time>2026-04-18T08:37:12.708Z</time></trkpt><trkpt lat="43.7532716" lon="11.245484"><ele>107.0</ele><time>2026-04-18T08:37:14.709Z</time></trkpt><trkpt lat="43.7531997" lon="11.2455289"><ele>106.66666666666667</ele><time>2026-04-18T08:37:45.709Z</time></trkpt><trkpt lat="43.753131" lon="11.2455709"><ele>106.33333333333334</ele><time>2026-04-18T08:37:47.709Z</time></trkpt><trkpt lat="43.7530862" lon="11.2456612"><ele>106.0</ele><time>2026-04-18T08:37:49.707Z</time></trkpt><trkpt lat="43.7531079" lon="11.2458007"><ele>105.19999999999999</ele><time>2026-04-18T08:37:51.708Z</time></trkpt><trkpt lat="43.753131" lon="11.2458887"><ele>104.39999999999999</ele><time>2026-04-18T08:37:52.708Z</time></trkpt><trkpt lat="43.7531693" lon="11.2459933"><ele>103.6</ele><time>2026-04-18T08:37:53.708Z</time></trkpt><trkpt lat="43.7532186" lon="11.2461044"><ele>102.8</ele><time>2026-04-18T08:37:54.709Z</time></trkpt><trkpt lat="43.7532718" lon="11.2462578"><ele>102.0</ele><time>2026-04-18T08:37:55.709Z</time></trkpt><trkpt lat="43.7533404" lon="11.24641"><ele>103.0</ele><time>2026-04-18T08:37:56.708Z</time></trkpt><trkpt lat="43.7534378" lon="11.2465928"><ele>104.0</ele><time>2026-04-18T08:37:57.708Z</time></trkpt><trkpt lat="43.7535206" lon="11.246781"><ele>105.0</ele><time>2026-04-18T08:37:58.709Z</time></trkpt><trkpt lat="43.7536049" lon="11.2469873"><ele>105.0</ele><time>2026-04-18T08:37:59.709Z</time></trkpt><trkpt lat="43.7536777" lon="11.2471752"><ele>105.0</ele><time>2026-04-18T08:38:00.709Z</time></trkpt><trkpt lat="43.7537556" lon="11.2473403"><ele>105.0</ele><time>2026-04-18T08:38:01.707Z</time></trkpt><trkpt lat="43.7538289" lon="11.2475039"><ele>105.0</ele><time>2026-04-18T08:38:02.709Z</time></trkpt><trkpt lat="43.7539079" lon="11.2476827"><ele>106.33333333333334</ele><time>2026-04-18T08:38:03.709Z</time></trkpt><trkpt lat="43.7539907" lon="11.2478663"><ele>107.66666666666667</ele><time>2026-04-18T08:38:04.709Z</time></trkpt><trkpt lat="43.7540859" lon="11.2480985"><ele>109.0</ele><time>2026-04-18T08:38:05.708Z</time></trkpt><trkpt lat="43.754205" lon="11.2484155"><ele>109.66666666666667</ele><time>2026-04-18T08:38:06.708Z</time></trkpt><trkpt lat="43.7543159" lon="11.2486446"><ele>110.33333333333334</ele><time>2026-04-18T08:38:07.708Z</time></trkpt><trkpt lat="43.7544228" lon="11.248872"><ele>111.0</ele><time>2026-04-18T08:38:08.709Z</time></trkpt><trkpt lat="43.7545487" lon="11.2490766"><ele>112.33333333333334</ele><time>2026-04-18T08:38:09.709Z</time></trkpt><trkpt lat="43.7546718" lon="11.2492916"><ele>113.66666666666667</ele><time>2026-04-18T08:38:10.709Z</time></trkpt><trkpt lat="43.7547967" lon="11.249482"><ele>115.0</ele><time>2026-04-18T08:38:11.708Z</time></trkpt><trkpt lat="43.7549187" lon="11.2496422"><ele>115.0</ele><time>2026-04-18T08:38:12.708Z</time></trkpt><trkpt lat="43.7550355" lon="11.2497905"><ele>115.0</ele><time>2026-04-18T08:38:13.709Z</time></trkpt><trkpt lat="43.7551256" lon="11.249931"><ele>115.0</ele><time>2026-04-18T08:38:14.708Z</time></trkpt><trkpt lat="43.755214" lon="11.2500512"><ele>115.0</ele><time>2026-04-18T08:38:15.708Z</time></trkpt><trkpt lat="43.7552542" lon="11.2501386"><ele>116.25</ele><time>2026-04-18T08:38:16.707Z</time></trkpt><trkpt lat="43.7553087" lon="11.2502324"><ele>117.5</ele><time>2026-04-18T08:38:17.708Z</time></trkpt><trkpt lat="43.7552836" lon="11.2504139"><ele>118.75</ele><time>2026-04-18T08:38:19.709Z</time></trkpt><trkpt lat="43.7552308" lon="11.2505627"><ele>120.0</ele><time>2026-04-18T08:38:20.708Z</time></trkpt><trkpt lat="43.7551529" lon="11.2507118"><ele>120.0</ele><time>2026-04-18T08:38:21.709Z</time></trkpt><trkpt lat="43.7550844" lon="11.2508468"><ele>120.0</ele><time>2026-04-18T08:38:22.709Z</time></trkpt><trkpt lat="43.7550171" lon="11.2509732"><ele>120.0</ele><time>2026-04-18T08:38:23.709Z</time></trkpt><trkpt lat="43.7549692" lon="11.2510909"><ele>120.0</ele><time>2026-04-18T08:38:24.709Z</time></trkpt><trkpt lat="43.7549307" lon="11.2511969"><ele>120.0</ele><time>2026-04-18T08:38:25.709Z</time></trkpt><trkpt lat="43.7549041" lon="11.2512919"><ele>120.0</ele><time>2026-04-18T08:38:26.709Z</time></trkpt><trkpt lat="43.7548918" lon="11.251379"><ele>120.0</ele><time>2026-04-18T08:38:27.709Z</time></trkpt><trkpt lat="43.7548667" lon="11.2514943"><ele>120.0</ele><time>2026-04-18T08:38:29.709Z</time></trkpt><trkpt lat="43.7548595" lon="11.2516326"><ele>120.0</ele><time>2026-04-18T08:38:38.709Z</time></trkpt><trkpt lat="43.7548583" lon="11.2517391"><ele>120.0</ele><time>2026-04-18T08:38:39.709Z</time></trkpt><trkpt lat="43.7548593" lon="11.2518518"><ele>120.0</ele><time>2026-04-18T08:38:40.708Z</time></trkpt><trkpt lat="43.7548582" lon="11.2519841"><ele>120.5</ele><time>2026-04-18T08:38:41.708Z</time></trkpt><trkpt lat="43.7548515" lon="11.2521344"><ele>121.0</ele><time>2026-04-18T08:38:42.709Z</time></trkpt><trkpt lat="43.7548413" lon="11.2522874"><ele>121.5</ele><time>2026-04-18T08:38:43.709Z</time></trkpt><trkpt lat="43.7548238" lon="11.2524517"><ele>122.0</ele><time>2026-04-18T08:38:44.709Z</time></trkpt><trkpt lat="43.7547978" lon="11.2526295"><ele>122.0</ele><time>2026-04-18T08:38:45.708Z</time></trkpt><trkpt lat="43.7547582" lon="11.2528203"><ele>122.0</ele><time>2026-04-18T08:38:46.707Z</time></trkpt><trkpt lat="43.75471" lon="11.2530339"><ele>122.0</ele><time>2026-04-18T08:38:47.708Z</time></trkpt><trkpt lat="43.7546552" lon="11.2532512"><ele>120.66666666666666</ele><time>2026-04-18T08:38:48.708Z</time></trkpt><trkpt lat="43.7546006" lon="11.2534718"><ele>119.33333333333334</ele><time>2026-04-18T08:38:49.708Z</time></trkpt><trkpt lat="43.7545408" lon="11.2536928"><ele>118.0</ele><time>2026-04-18T08:38:50.707Z</time></trkpt><trkpt lat="43.7544893" lon="11.2538861"><ele>118.0</ele><time>2026-04-18T08:38:51.708Z</time></trkpt><trkpt lat="43.7544489" lon="11.2540582"><ele>118.0</ele><time>2026-04-18T08:38:52.709Z</time></trkpt><trkpt lat="43.7544037" lon="11.254214"><ele>118.0</ele><time>2026-04-18T08:38:53.709Z</time></trkpt><trkpt lat="43.754362" lon="11.2543624"><ele>118.0</ele><time>2026-04-18T08:38:54.709Z</time></trkpt><trkpt lat="43.7543245" lon="11.2544937"><ele>119.60000000000001</ele><time>2026-04-18T08:38:55.708Z</time></trkpt><trkpt lat="43.7542913" lon="11.2546227"><ele>121.20000000000002</ele><time>2026-04-18T08:38:56.708Z</time></trkpt><trkpt lat="43.7542546" lon="11.2547474"><ele>122.8</ele><time>2026-04-18T08:38:57.709Z</time></trkpt><trkpt lat="43.7542151" lon="11.2548798"><ele>124.4</ele><time>2026-04-18T08:38:58.708Z</time></trkpt><trkpt lat="43.7541852" lon="11.2550096"><ele>126.0</ele><time>2026-04-18T08:38:59.709Z</time></trkpt><trkpt lat="43.7541571" lon="11.2551391"><ele>126.0</ele><time>2026-04-18T08:39:00.708Z</time></trkpt><trkpt lat="43.7541448" lon="11.2552636"><ele>126.0</ele><time>2026-04-18T08:39:01.708Z</time></trkpt><trkpt lat="43.7541314" lon="11.2553907"><ele>126.0</ele><time>2026-04-18T08:39:02.708Z</time></trkpt><trkpt lat="43.7541532" lon="11.2555379"><ele>126.0</ele><time>2026-04-18T08:39:03.709Z</time></trkpt><trkpt lat="43.7541982" lon="11.255676"><ele>126.0</ele><time>2026-04-18T08:39:04.708Z</time></trkpt><trkpt lat="43.7542869" lon="11.2558001"><ele>126.5</ele><time>2026-04-18T08:39:05.707Z</time></trkpt><trkpt lat="43.7543494" lon="11.2559306"><ele>127.0</ele><time>2026-04-18T08:39:06.709Z</time></trkpt><trkpt lat="43.7544934" lon="11.255939"><ele>127.5</ele><time>2026-04-18T08:39:07.709Z</time></trkpt><trkpt lat="43.7545843" lon="11.2559968"><ele>128.0</ele><time>2026-04-18T08:39:08.709Z</time></trkpt><trkpt lat="43.7546802" lon="11.25603"><ele>125.75</ele><time>2026-04-18T08:39:09.708Z</time></trkpt><trkpt lat="43.7547956" lon="11.2559969"><ele>123.5</ele><time>2026-04-18T08:39:10.708Z</time></trkpt><trkpt lat="43.7549164" lon="11.2559487"><ele>121.25</ele><time>2026-04-18T08:39:11.709Z</time></trkpt><trkpt lat="43.7550368" lon="11.2559076"><ele>119.0</ele><time>2026-04-18T08:39:12.708Z</time></trkpt><trkpt lat="43.7551672" lon="11.2558593"><ele>118.33333333333333</ele><time>2026-04-18T08:39:13.708Z</time></trkpt><trkpt lat="43.7553346" lon="11.2558512"><ele>117.66666666666666</ele><time>2026-04-18T08:39:14.709Z</time></trkpt><trkpt lat="43.7555" lon="11.2558517"><ele>117.0</ele><time>2026-04-18T08:39:15.709Z</time></trkpt><trkpt lat="43.7556771" lon="11.255919"><ele>117.0</ele><time>2026-04-18T08:39:16.709Z</time></trkpt><trkpt lat="43.7558467" lon="11.255989"><ele>117.0</ele><time>2026-04-18T08:39:17.708Z</time></trkpt><trkpt lat="43.7560172" lon="11.2561121"><ele>117.0</ele><time>2026-04-18T08:39:18.708Z</time></trkpt><trkpt lat="43.7561793" lon="11.256201"><ele>118.0</ele><time>2026-04-18T08:39:19.708Z</time></trkpt><trkpt lat="43.7562926" lon="11.2563507"><ele>119.0</ele><time>2026-04-18T08:39:20.709Z</time></trkpt><trkpt lat="43.7564089" lon="11.2564699"><ele>120.0</ele><time>2026-04-18T08:39:21.707Z</time></trkpt><trkpt lat="43.7565264" lon="11.2565926"><ele>121.0</ele><time>2026-04-18T08:39:22.707Z</time></trkpt><trkpt lat="43.7566297" lon="11.2567102"><ele>121.0</ele><time>2026-04-18T08:39:23.708Z</time></trkpt><trkpt lat="43.7567305" lon="11.2568178"><ele>121.0</ele><time>2026-04-18T08:39:24.709Z</time></trkpt><trkpt lat="43.7568198" lon="11.256912"><ele>121.0</ele><time>2026-04-18T08:39:25.709Z</time></trkpt><trkpt lat="43.7569014" lon="11.257"><ele>121.0</ele><time>2026-04-18T08:39:26.709Z</time></trkpt><trkpt lat="43.7569786" lon="11.2570907"><ele>121.0</ele><time>2026-04-18T08:39:27.709Z</time></trkpt><trkpt lat="43.7570592" lon="11.2571856"><ele>119.5</ele><time>2026-04-18T08:39:28.709Z</time></trkpt><trkpt lat="43.7571492" lon="11.2572863"><ele>118.0</ele><time>2026-04-18T08:39:29.709Z</time></trkpt><trkpt lat="43.7572549" lon="11.2574029"><ele>116.5</ele><time>2026-04-18T08:39:30.708Z</time></trkpt><trkpt lat="43.7573887" lon="11.2575422"><ele>115.0</ele><time>2026-04-18T08:39:31.708Z</time></trkpt><trkpt lat="43.7575297" lon="11.2577068"><ele>115.0</ele><time>2026-04-18T08:39:32.708Z</time></trkpt><trkpt lat="43.7576929" lon="11.2578931"><ele>115.0</ele><time>2026-04-18T08:39:33.709Z</time></trkpt><trkpt lat="43.7578333" lon="11.2580619"><ele>115.0</ele><time>2026-04-18T08:39:34.709Z</time></trkpt><trkpt lat="43.7579501" lon="11.2582483"><ele>112.0</ele><time>2026-04-18T08:39:35.709Z</time></trkpt><trkpt lat="43.7580228" lon="11.2584599"><ele>109.0</ele><time>2026-04-18T08:39:36.708Z</time></trkpt><trkpt lat="43.7580499" lon="11.2586745"><ele>106.0</ele><time>2026-04-18T08:39:37.709Z</time></trkpt><trkpt lat="43.7580169" lon="11.258881"><ele>107.0</ele><time>2026-04-18T08:39:38.708Z</time></trkpt><trkpt lat="43.7579285" lon="11.2590899"><ele>108.0</ele><time>2026-04-18T08:39:39.707Z</time></trkpt><trkpt lat="43.757827" lon="11.2592952"><ele>109.0</ele><time>2026-04-18T08:39:40.709Z</time></trkpt><trkpt lat="43.7577228" lon="11.2594869"><ele>114.66666666666667</ele><time>2026-04-18T08:39:41.708Z</time></trkpt><trkpt lat="43.757665" lon="11.2597008"><ele>120.33333333333334</ele><time>2026-04-18T08:39:42.708Z</time></trkpt><trkpt lat="43.7576501" lon="11.2599084"><ele>126.0</ele><time>2026-04-18T08:39:43.708Z</time></trkpt><trkpt lat="43.7576757" lon="11.2601012"><ele>124.0</ele><time>2026-04-18T08:39:44.708Z</time></trkpt><trkpt lat="43.7577398" lon="11.2602913"><ele>122.0</ele><time>2026-04-18T08:39:45.708Z</time></trkpt><trkpt lat="43.7578079" lon="11.2605106"><ele>120.0</ele><time>2026-04-18T08:39:46.708Z</time></trkpt><trkpt lat="43.7579129" lon="11.2607418"><ele>120.0</ele><time>2026-04-18T08:39:47.709Z</time></trkpt><trkpt lat="43.7579798" lon="11.2609537"><ele>120.0</ele><time>2026-04-18T08:39:48.709Z</time></trkpt><trkpt lat="43.758052" lon="11.261191"><ele>120.0</ele><time>2026-04-18T08:39:49.709Z</time></trkpt><trkpt lat="43.7581042" lon="11.2614403"><ele>120.0</ele><time>2026-04-18T08:39:50.708Z</time></trkpt><trkpt lat="43.7581435" lon="11.2616899"><ele>120.0</ele><time>2026-04-18T08:39:51.707Z</time></trkpt><trkpt lat="43.7581828" lon="11.2619306"><ele>120.0</ele><time>2026-04-18T08:39:52.708Z</time></trkpt><trkpt lat="43.7582379" lon="11.2621471"><ele>120.66666666666666</ele><time>2026-04-18T08:39:53.709Z</time></trkpt><trkpt lat="43.7583118" lon="11.2623424"><ele>121.33333333333333</ele><time>2026-04-18T08:39:54.709Z</time></trkpt><trkpt lat="43.7583889" lon="11.2625519"><ele>122.0</ele><time>2026-04-18T08:39:55.709Z</time></trkpt><trkpt lat="43.7585017" lon="11.2626877"><ele>118.66666666666666</ele><time>2026-04-18T08:39:56.709Z</time></trkpt><trkpt lat="43.7586464" lon="11.262836"><ele>115.33333333333334</ele><time>2026-04-18T08:39:57.709Z</time></trkpt><trkpt lat="43.7588999" lon="11.2628187"><ele>112.0</ele><time>2026-04-18T08:39:58.709Z</time></trkpt><trkpt lat="43.7591217" lon="11.2628686"><ele>112.0</ele><time>2026-04-18T08:39:59.709Z</time></trkpt><trkpt lat="43.7593051" lon="11.2629796"><ele>112.0</ele><time>2026-04-18T08:40:00.709Z</time></trkpt><trkpt lat="43.7594794" lon="11.263109"><ele>112.0</ele><time>2026-04-18T08:40:01.709Z</time></trkpt><trkpt lat="43.7596508" lon="11.2632391"><ele>111.33333333333334</ele><time>2026-04-18T08:40:02.708Z</time></trkpt><trkpt lat="43.7597711" lon="11.2634157"><ele>110.66666666666666</ele><time>2026-04-18T08:40:03.709Z</time></trkpt><trkpt lat="43.7598968" lon="11.2635784"><ele>110.0</ele><time>2026-04-18T08:40:04.708Z</time></trkpt><trkpt lat="43.7600089" lon="11.2637378"><ele>110.0</ele><time>2026-04-18T08:40:05.708Z</time></trkpt><trkpt lat="43.760106" lon="11.263886"><ele>110.0</ele><time>2026-04-18T08:40:06.709Z</time></trkpt><trkpt lat="43.760208" lon="11.2640308"><ele>110.0</ele><time>2026-04-18T08:40:07.709Z</time></trkpt><trkpt lat="43.7603124" lon="11.264178"><ele>110.0</ele><time>2026-04-18T08:40:08.708Z</time></trkpt><trkpt lat="43.7604247" lon="11.264298"><ele>108.75</ele><time>2026-04-18T08:40:09.708Z</time></trkpt><trkpt lat="43.7605406" lon="11.2643961"><ele>107.5</ele><time>2026-04-18T08:40:10.708Z</time></trkpt><trkpt lat="43.7606527" lon="11.2644694"><ele>106.25</ele><time>2026-04-18T08:40:11.709Z</time></trkpt><trkpt lat="43.7607712" lon="11.2645123"><ele>105.0</ele><time>2026-04-18T08:40:12.708Z</time></trkpt><trkpt lat="43.7608903" lon="11.2645565"><ele>105.0</ele><time>2026-04-18T08:40:13.708Z</time></trkpt><trkpt lat="43.7610217" lon="11.2645829"><ele>105.0</ele><time>2026-04-18T08:40:14.709Z</time></trkpt><trkpt lat="43.7611516" lon="11.2645562"><ele>105.0</ele><time>2026-04-18T08:40:15.709Z</time></trkpt><trkpt lat="43.761296" lon="11.2645202"><ele>105.0</ele><time>2026-04-18T08:40:16.709Z</time></trkpt><trkpt lat="43.7614122" lon="11.26448"><ele>104.33333333333333</ele><time>2026-04-18T08:40:17.709Z</time></trkpt><trkpt lat="43.7614968" lon="11.264427"><ele>103.66666666666666</ele><time>2026-04-18T08:40:18.708Z</time></trkpt><trkpt lat="43.7615738" lon="11.2643937"><ele>103.0</ele><time>2026-04-18T08:40:19.707Z</time></trkpt><trkpt lat="43.7616517" lon="11.2643592"><ele>102.33333333333333</ele><time>2026-04-18T08:40:20.708Z</time></trkpt><trkpt lat="43.761716" lon="11.2643523"><ele>101.66666666666666</ele><time>2026-04-18T08:40:21.708Z</time></trkpt><trkpt lat="43.7617792" lon="11.2643378"><ele>101.0</ele><time>2026-04-18T08:40:22.708Z</time></trkpt><trkpt lat="43.7619178" lon="11.2643039"><ele>100.66666666666666</ele><time>2026-04-18T08:40:24.709Z</time></trkpt><trkpt lat="43.7619999" lon="11.2642875"><ele>100.33333333333333</ele><time>2026-04-18T08:40:25.708Z</time></trkpt><trkpt lat="43.7620742" lon="11.2642722"><ele>100.0</ele><time>2026-04-18T08:40:26.708Z</time></trkpt><trkpt lat="43.762147" lon="11.264274"><ele>99.66666666666666</ele><time>2026-04-18T08:40:27.708Z</time></trkpt><trkpt lat="43.7622137" lon="11.2642924"><ele>99.33333333333333</ele><time>2026-04-18T08:40:28.709Z</time></trkpt><trkpt lat="43.7622778" lon="11.264322"><ele>99.0</ele><time>2026-04-18T08:40:29.709Z</time></trkpt><trkpt lat="43.762358" lon="11.2644184"><ele>99.0</ele><time>2026-04-18T08:40:31.708Z</time></trkpt><trkpt lat="43.7624175" lon="11.2645548"><ele>99.0</ele><time>2026-04-18T08:40:33.708Z</time></trkpt><trkpt lat="43.7624355" lon="11.2646394"><ele>99.0</ele><time>2026-04-18T08:40:34.708Z</time></trkpt><trkpt lat="43.7624475" lon="11.2647427"><ele>99.0</ele><time>2026-04-18T08:40:35.709Z</time></trkpt><trkpt lat="43.7624446" lon="11.2648414"><ele>99.0</ele><time>2026-04-18T08:40:36.709Z</time></trkpt><trkpt lat="43.7624316" lon="11.264943"><ele>99.0</ele><time>2026-04-18T08:40:37.709Z</time></trkpt><trkpt lat="43.762409" lon="11.2650315"><ele>99.33333333333333</ele><time>2026-04-18T08:40:38.708Z</time></trkpt><trkpt lat="43.7623793" lon="11.2651164"><ele>99.66666666666666</ele><time>2026-04-18T08:40:39.709Z</time></trkpt><trkpt lat="43.7623409" lon="11.2652056"><ele>100.0</ele><time>2026-04-18T08:40:40.709Z</time></trkpt><trkpt lat="43.7622929" lon="11.2653016"><ele>100.33333333333333</ele><time>2026-04-18T08:40:41.709Z</time></trkpt><trkpt lat="43.7622393" lon="11.2654099"><ele>100.66666666666666</ele><time>2026-04-18T08:40:42.709Z</time></trkpt><trkpt lat="43.7621841" lon="11.2655235"><ele>101.0</ele><time>2026-04-18T08:40:43.708Z</time></trkpt><trkpt lat="43.7621234" lon="11.2656514"><ele>101.0</ele><time>2026-04-18T08:40:44.708Z</time></trkpt><trkpt lat="43.7620631" lon="11.2657739"><ele>101.0</ele><time>2026-04-18T08:40:45.709Z</time></trkpt><trkpt lat="43.7620105" lon="11.2658842"><ele>101.0</ele><time>2026-04-18T08:40:46.709Z</time></trkpt><trkpt lat="43.761958" lon="11.2659884"><ele>101.0</ele><time>2026-04-18T08:40:47.709Z</time></trkpt><trkpt lat="43.7619079" lon="11.2660861"><ele>101.0</ele><time>2026-04-18T08:40:48.708Z</time></trkpt><trkpt lat="43.7618614" lon="11.2661814"><ele>102.19999999999999</ele><time>2026-04-18T08:40:49.708Z</time></trkpt><trkpt lat="43.7618104" lon="11.2662749"><ele>103.39999999999999</ele><time>2026-04-18T08:40:50.708Z</time></trkpt><trkpt lat="43.7617601" lon="11.2663785"><ele>104.6</ele><time>2026-04-18T08:40:51.709Z</time></trkpt><trkpt lat="43.7617075" lon="11.266498"><ele>105.8</ele><time>2026-04-18T08:40:52.709Z</time></trkpt><trkpt lat="43.7616593" lon="11.2666207"><ele>107.0</ele><time>2026-04-18T08:40:53.709Z</time></trkpt><trkpt lat="43.7616128" lon="11.2667486"><ele>107.0</ele><time>2026-04-18T08:40:54.708Z</time></trkpt><trkpt lat="43.7615557" lon="11.2668787"><ele>106.99999999999999</ele><time>2026-04-18T08:40:55.708Z</time></trkpt><trkpt lat="43.7614979" lon="11.267016"><ele>106.99999999999999</ele><time>2026-04-18T08:40:56.708Z</time></trkpt><trkpt lat="43.7614518" lon="11.2671538"><ele>107.0</ele><time>2026-04-18T08:40:57.709Z</time></trkpt><trkpt lat="43.7614046" lon="11.2672935"><ele>107.0</ele><time>2026-04-18T08:40:58.709Z</time></trkpt><trkpt lat="43.7613592" lon="11.2674469"><ele>104.5</ele><time>2026-04-18T08:40:59.709Z</time></trkpt><trkpt lat="43.7613263" lon="11.2676131"><ele>102.0</ele><time>2026-04-18T08:41:00.708Z</time></trkpt><trkpt lat="43.7612917" lon="11.2677874"><ele>99.5</ele><time>2026-04-18T08:41:01.707Z</time></trkpt><trkpt lat="43.7612865" lon="11.2679677"><ele>97.0</ele><time>2026-04-18T08:41:02.708Z</time></trkpt><trkpt lat="43.7612804" lon="11.2681219"><ele>96.6</ele><time>2026-04-18T08:41:03.709Z</time></trkpt><trkpt lat="43.7612769" lon="11.2682803"><ele>96.19999999999999</ele><time>2026-04-18T08:41:04.708Z</time></trkpt><trkpt lat="43.7612823" lon="11.2684284"><ele>95.8</ele><time>2026-04-18T08:41:05.708Z</time></trkpt><trkpt lat="43.7612867" lon="11.2685582"><ele>95.4</ele><time>2026-04-18T08:41:06.709Z</time></trkpt><trkpt lat="43.761299" lon="11.2686764"><ele>95.0</ele><time>2026-04-18T08:41:07.708Z</time></trkpt><trkpt lat="43.7613072" lon="11.2687798"><ele>95.0</ele><time>2026-04-18T08:41:08.708Z</time></trkpt><trkpt lat="43.7613308" lon="11.2689022"><ele>95.0</ele><time>2026-04-18T08:41:10.709Z</time></trkpt><trkpt lat="43.7613387" lon="11.268994"><ele>95.0</ele><time>2026-04-18T08:41:11.708Z</time></trkpt><trkpt lat="43.7613415" lon="11.2690888"><ele>95.0</ele><time>2026-04-18T08:41:12.708Z</time></trkpt><trkpt lat="43.761341" lon="11.2692392"><ele>95.0</ele><time>2026-04-18T08:41:14.709Z</time></trkpt><trkpt lat="43.7613211" lon="11.2693303"><ele>95.0</ele><time>2026-04-18T08:41:18.708Z</time></trkpt><trkpt lat="43.7613144" lon="11.2694787"><ele>95.25</ele><time>2026-04-18T08:41:20.708Z</time></trkpt><trkpt lat="43.7612402" lon="11.2696222"><ele>95.5</ele><time>2026-04-18T08:41:21.708Z</time></trkpt><trkpt lat="43.7611237" lon="11.2698664"><ele>95.75</ele><time>2026-04-18T08:41:23.709Z</time></trkpt><trkpt lat="43.7610371" lon="11.2699573"><ele>96.0</ele><time>2026-04-18T08:41:24.708Z</time></trkpt><trkpt lat="43.7609478" lon="11.2700653"><ele>97.25</ele><time>2026-04-18T08:41:25.707Z</time></trkpt><trkpt lat="43.7608463" lon="11.2701439"><ele>98.5</ele><time>2026-04-18T08:41:26.708Z</time></trkpt><trkpt lat="43.7607277" lon="11.2702185"><ele>99.75</ele><time>2026-04-18T08:41:27.709Z</time></trkpt><trkpt lat="43.7605841" lon="11.2702441"><ele>101.0</ele><time>2026-04-18T08:41:28.709Z</time></trkpt><trkpt lat="43.7604289" lon="11.2702733"><ele>101.0</ele><time>2026-04-18T08:41:29.709Z</time></trkpt><trkpt lat="43.7602673" lon="11.2702923"><ele>101.0</ele><time>2026-04-18T08:41:30.709Z</time></trkpt><trkpt lat="43.7601253" lon="11.270168"><ele>101.0</ele><time>2026-04-18T08:41:31.709Z</time></trkpt><trkpt lat="43.7599738" lon="11.2700975"><ele>99.33333333333333</ele><time>2026-04-18T08:41:32.708Z</time></trkpt><trkpt lat="43.7598378" lon="11.2700138"><ele>97.66666666666666</ele><time>2026-04-18T08:41:33.707Z</time></trkpt><trkpt lat="43.7597062" lon="11.2699027"><ele>96.0</ele><time>2026-04-18T08:41:34.708Z</time></trkpt><trkpt lat="43.7595791" lon="11.2697991"><ele>95.0</ele><time>2026-04-18T08:41:35.709Z</time></trkpt><trkpt lat="43.7594463" lon="11.2697032"><ele>94.0</ele><time>2026-04-18T08:41:36.709Z</time></trkpt><trkpt lat="43.7593199" lon="11.2695974"><ele>93.0</ele><time>2026-04-18T08:41:37.707Z</time></trkpt><trkpt lat="43.7591804" lon="11.2694988"><ele>93.0</ele><time>2026-04-18T08:41:38.708Z</time></trkpt><trkpt lat="43.7590413" lon="11.2693991"><ele>93.0</ele><time>2026-04-18T08:41:39.709Z</time></trkpt><trkpt lat="43.7589039" lon="11.269307"><ele>93.0</ele><time>2026-04-18T08:41:40.708Z</time></trkpt><trkpt lat="43.758773" lon="11.2692098"><ele>93.0</ele><time>2026-04-18T08:41:41.708Z</time></trkpt><trkpt lat="43.7586463" lon="11.2691024"><ele>93.0</ele><time>2026-04-18T08:41:42.708Z</time></trkpt><trkpt lat="43.7585074" lon="11.269011"><ele>93.0</ele><time>2026-04-18T08:41:43.708Z</time></trkpt><trkpt lat="43.7583764" lon="11.2689023"><ele>92.33333333333333</ele><time>2026-04-18T08:41:44.709Z</time></trkpt><trkpt lat="43.758245" lon="11.2688007"><ele>91.66666666666666</ele><time>2026-04-18T08:41:45.709Z</time></trkpt><trkpt lat="43.7581079" lon="11.2686784"><ele>91.0</ele><time>2026-04-18T08:41:46.708Z</time></trkpt><trkpt lat="43.7579825" lon="11.2685676"><ele>91.0</ele><time>2026-04-18T08:41:47.709Z</time></trkpt><trkpt lat="43.7578488" lon="11.2684665"><ele>91.0</ele><time>2026-04-18T08:41:48.709Z</time></trkpt><trkpt lat="43.7577204" lon="11.2683561"><ele>91.0</ele><time>2026-04-18T08:41:49.709Z</time></trkpt><trkpt lat="43.7575684" lon="11.2682823"><ele>89.0</ele><time>2026-04-18T08:41:50.708Z</time></trkpt><trkpt lat="43.7574368" lon="11.2682034"><ele>87.0</ele><time>2026-04-18T08:41:51.708Z</time></trkpt><trkpt lat="43.7572859" lon="11.2681835"><ele>85.0</ele><time>2026-04-18T08:41:52.709Z</time></trkpt><trkpt lat="43.7571388" lon="11.2681814"><ele>83.0</ele><time>2026-04-18T08:41:53.709Z</time></trkpt><trkpt lat="43.7569966" lon="11.2682045"><ele>83.0</ele><time>2026-04-18T08:41:54.708Z</time></trkpt><trkpt lat="43.7568707" lon="11.2682423"><ele>83.0</ele><time>2026-04-18T08:41:55.708Z</time></trkpt><trkpt lat="43.7567526" lon="11.2683482"><ele>83.0</ele><time>2026-04-18T08:41:56.709Z</time></trkpt><trkpt lat="43.7566536" lon="11.26848"><ele>83.0</ele><time>2026-04-18T08:41:57.708Z</time></trkpt><trkpt lat="43.7565528" lon="11.2686171"><ele>82.0</ele><time>2026-04-18T08:41:58.708Z</time></trkpt><trkpt lat="43.7564777" lon="11.2687769"><ele>81.0</ele><time>2026-04-18T08:41:59.709Z</time></trkpt><trkpt lat="43.7563984" lon="11.2689348"><ele>80.0</ele><time>2026-04-18T08:42:00.708Z</time></trkpt><trkpt lat="43.7563729" lon="11.2691077"><ele>79.0</ele><time>2026-04-18T08:42:01.709Z</time></trkpt><trkpt lat="43.7564019" lon="11.2693232"><ele>78.25</ele><time>2026-04-18T08:42:02.708Z</time></trkpt><trkpt lat="43.7564128" lon="11.2695074"><ele>77.5</ele><time>2026-04-18T08:42:03.708Z</time></trkpt><trkpt lat="43.7564919" lon="11.2696927"><ele>76.75</ele><time>2026-04-18T08:42:04.709Z</time></trkpt><trkpt lat="43.7565502" lon="11.2698731"><ele>76.0</ele><time>2026-04-18T08:42:05.709Z</time></trkpt><trkpt lat="43.7566504" lon="11.2700365"><ele>76.0</ele><time>2026-04-18T08:42:06.708Z</time></trkpt><trkpt lat="43.7567825" lon="11.2701578"><ele>76.0</ele><time>2026-04-18T08:42:07.707Z</time></trkpt><trkpt lat="43.7569003" lon="11.2702937"><ele>76.0</ele><time>2026-04-18T08:42:08.709Z</time></trkpt><trkpt lat="43.757024" lon="11.2704233"><ele>74.33333333333333</ele><time>2026-04-18T08:42:09.709Z</time></trkpt><trkpt lat="43.757151" lon="11.2705492"><ele>72.66666666666667</ele><time>2026-04-18T08:42:10.709Z</time></trkpt><trkpt lat="43.757272" lon="11.2706775"><ele>71.0</ele><time>2026-04-18T08:42:11.708Z</time></trkpt><trkpt lat="43.7573918" lon="11.2708065"><ele>71.0</ele><time>2026-04-18T08:42:12.708Z</time></trkpt><trkpt lat="43.7575108" lon="11.2709281"><ele>71.0</ele><time>2026-04-18T08:42:13.709Z</time></trkpt><trkpt lat="43.7576247" lon="11.2710431"><ele>71.0</ele><time>2026-04-18T08:42:14.709Z</time></trkpt><trkpt lat="43.7577345" lon="11.271154"><ele>71.0</ele><time>2026-04-18T08:42:15.708Z</time></trkpt><trkpt lat="43.7578402" lon="11.2712544"><ele>70.25</ele><time>2026-04-18T08:42:16.708Z</time></trkpt><trkpt lat="43.7579458" lon="11.2713505"><ele>69.5</ele><time>2026-04-18T08:42:17.709Z</time></trkpt><trkpt lat="43.7580617" lon="11.2714376"><ele>68.75</ele><time>2026-04-18T08:42:18.709Z</time></trkpt><trkpt lat="43.7581873" lon="11.2715174"><ele>68.0</ele><time>2026-04-18T08:42:19.708Z</time></trkpt><trkpt lat="43.7583144" lon="11.2715771"><ele>68.0</ele><time>2026-04-18T08:42:20.707Z</time></trkpt><trkpt lat="43.7584397" lon="11.2716283"><ele>68.0</ele><time>2026-04-18T08:42:21.708Z</time></trkpt><trkpt lat="43.7585752" lon="11.2716767"><ele>68.0</ele><time>2026-04-18T08:42:22.709Z</time></trkpt><trkpt lat="43.7587285" lon="11.2717053"><ele>68.0</ele><time>2026-04-18T08:42:23.709Z</time></trkpt><trkpt lat="43.7588709" lon="11.2717575"><ele>67.0</ele><time>2026-04-18T08:42:24.708Z</time></trkpt><trkpt lat="43.7590151" lon="11.2717927"><ele>66.0</ele><time>2026-04-18T08:42:25.708Z</time></trkpt><trkpt lat="43.7591422" lon="11.2718451"><ele>65.0</ele><time>2026-04-18T08:42:26.709Z</time></trkpt><trkpt lat="43.759262" lon="11.2718817"><ele>64.0</ele><time>2026-04-18T08:42:27.709Z</time></trkpt><trkpt lat="43.7593791" lon="11.2719099"><ele>63.75</ele><time>2026-04-18T08:42:28.709Z</time></trkpt><trkpt lat="43.759508" lon="11.2719464"><ele>63.5</ele><time>2026-04-18T08:42:29.708Z</time></trkpt><trkpt lat="43.7596415" lon="11.27199"><ele>63.25</ele><time>2026-04-18T08:42:30.708Z</time></trkpt><trkpt lat="43.7597892" lon="11.2720334"><ele>63.0</ele><time>2026-04-18T08:42:31.708Z</time></trkpt><trkpt lat="43.7599389" lon="11.2720858"><ele>63.0</ele><time>2026-04-18T08:42:32.709Z</time></trkpt><trkpt lat="43.7601005" lon="11.2721365"><ele>63.0</ele><time>2026-04-18T08:42:33.709Z</time></trkpt><trkpt lat="43.7602733" lon="11.2721974"><ele>63.0</ele><time>2026-04-18T08:42:34.709Z</time></trkpt><trkpt lat="43.7604527" lon="11.2722668"><ele>62.33333333333333</ele><time>2026-04-18T08:42:35.708Z</time></trkpt><trkpt lat="43.7606262" lon="11.2723333"><ele>61.666666666666664</ele><time>2026-04-18T08:42:36.708Z</time></trkpt><trkpt lat="43.7607845" lon="11.2723983"><ele>61.0</ele><time>2026-04-18T08:42:37.707Z</time></trkpt><trkpt lat="43.7609432" lon="11.2724477"><ele>58.666666666666664</ele><time>2026-04-18T08:42:38.708Z</time></trkpt><trkpt lat="43.7610964" lon="11.2724968"><ele>56.33333333333333</ele><time>2026-04-18T08:42:39.708Z</time></trkpt><trkpt lat="43.761254" lon="11.2725416"><ele>54.0</ele><time>2026-04-18T08:42:40.708Z</time></trkpt><trkpt lat="43.7613984" lon="11.2725847"><ele>54.0</ele><time>2026-04-18T08:42:41.709Z</time></trkpt><trkpt lat="43.761533" lon="11.2726306"><ele>54.0</ele><time>2026-04-18T08:42:42.709Z</time></trkpt><trkpt lat="43.7616623" lon="11.2726572"><ele>54.0</ele><time>2026-04-18T08:42:43.708Z</time></trkpt><trkpt lat="43.7617852" lon="11.2726873"><ele>54.0</ele><time>2026-04-18T08:42:44.709Z</time></trkpt><trkpt lat="43.7618825" lon="11.2726961"><ele>54.25</ele><time>2026-04-18T08:42:45.709Z</time></trkpt><trkpt lat="43.7620185" lon="11.2726681"><ele>54.5</ele><time>2026-04-18T08:42:46.709Z</time></trkpt><trkpt lat="43.7621465" lon="11.2726398"><ele>54.75</ele><time>2026-04-18T08:42:47.709Z</time></trkpt><trkpt lat="43.7622678" lon="11.2726081"><ele>55.0</ele><time>2026-04-18T08:42:48.709Z</time></trkpt><trkpt lat="43.7623758" lon="11.2725619"><ele>55.0</ele><time>2026-04-18T08:42:49.708Z</time></trkpt><trkpt lat="43.7624799" lon="11.2725061"><ele>55.0</ele><time>2026-04-18T08:42:50.709Z</time></trkpt><trkpt lat="43.7625705" lon="11.2724493"><ele>55.0</ele><time>2026-04-18T08:42:51.709Z</time></trkpt><trkpt lat="43.762658" lon="11.2723926"><ele>55.0</ele><time>2026-04-18T08:42:52.709Z</time></trkpt><trkpt lat="43.7627319" lon="11.2723258"><ele>55.0</ele><time>2026-04-18T08:42:53.708Z</time></trkpt><trkpt lat="43.7628019" lon="11.2722659"><ele>54.4</ele><time>2026-04-18T08:42:54.709Z</time></trkpt><trkpt lat="43.7628659" lon="11.2722062"><ele>53.8</ele><time>2026-04-18T08:42:55.709Z</time></trkpt><trkpt lat="43.7629724" lon="11.2720917"><ele>53.2</ele><time>2026-04-18T08:42:57.708Z</time></trkpt><trkpt lat="43.763023" lon="11.2720108"><ele>52.6</ele><time>2026-04-18T08:42:58.709Z</time></trkpt><trkpt lat="43.7631184" lon="11.2718993"><ele>52.0</ele><time>2026-04-18T08:43:00.708Z</time></trkpt><trkpt lat="43.7631711" lon="11.2718247"><ele>51.99999999999999</ele><time>2026-04-18T08:43:01.708Z</time></trkpt><trkpt lat="43.7632276" lon="11.2717493"><ele>52.0</ele><time>2026-04-18T08:43:02.709Z</time></trkpt><trkpt lat="43.7633026" lon="11.2716918"><ele>52.0</ele><time>2026-04-18T08:43:03.709Z</time></trkpt><trkpt lat="43.763379" lon="11.27166"><ele>52.0</ele><time>2026-04-18T08:43:04.709Z</time></trkpt><trkpt lat="43.7634675" lon="11.2716676"><ele>51.99999999999999</ele><time>2026-04-18T08:43:05.709Z</time></trkpt><trkpt lat="43.7635656" lon="11.27166"><ele>52.0</ele><time>2026-04-18T08:43:07.708Z</time></trkpt><trkpt lat="43.7636388" lon="11.2716248"><ele>51.666666666666664</ele><time>2026-04-18T08:43:09.708Z</time></trkpt><trkpt lat="43.7637018" lon="11.2715924"><ele>51.33333333333333</ele><time>2026-04-18T08:43:11.709Z</time></trkpt><trkpt lat="43.7637455" lon="11.2715161"><ele>51.0</ele><time>2026-04-18T08:43:13.708Z</time></trkpt><trkpt lat="43.7638135" lon="11.2714681"><ele>50.66666666666667</ele><time>2026-04-18T08:43:16.709Z</time></trkpt><trkpt lat="43.7638757" lon="11.2713542"><ele>50.333333333333336</ele><time>2026-04-18T08:43:18.709Z</time></trkpt><trkpt lat="43.7639333" lon="11.271198"><ele>50.0</ele><time>2026-04-18T08:43:20.709Z</time></trkpt><trkpt lat="43.7639622" lon="11.2711179"><ele>50.0</ele><time>2026-04-18T08:43:21.708Z</time></trkpt><trkpt lat="43.7640083" lon="11.2710308"><ele>50.0</ele><time>2026-04-18T08:43:22.708Z</time></trkpt><trkpt lat="43.7640838" lon="11.2709741"><ele>50.0</ele><time>2026-04-18T08:43:23.709Z</time></trkpt><trkpt lat="43.7641747" lon="11.2709517"><ele>50.0</ele><time>2026-04-18T08:43:24.709Z</time></trkpt><trkpt lat="43.7642707" lon="11.270954"><ele>50.0</ele><time>2026-04-18T08:43:25.709Z</time></trkpt><trkpt lat="43.7643735" lon="11.2709872"><ele>50.0</ele><time>2026-04-18T08:43:26.709Z</time></trkpt><trkpt lat="43.7644827" lon="11.2710158"><ele>50.0</ele><time>2026-04-18T08:43:27.708Z</time></trkpt><trkpt lat="43.7645941" lon="11.2710474"><ele>50.0</ele><time>2026-04-18T08:43:28.709Z</time></trkpt><trkpt lat="43.7646977" lon="11.2710737"><ele>50.0</ele><time>2026-04-18T08:43:29.708Z</time></trkpt><trkpt lat="43.7647911" lon="11.2710994"><ele>50.0</ele><time>2026-04-18T08:43:30.708Z</time></trkpt><trkpt lat="43.7648786" lon="11.2711254"><ele>50.00000000000001</ele><time>2026-04-18T08:43:31.709Z</time></trkpt><trkpt lat="43.7649617" lon="11.2711505"><ele>50.0</ele><time>2026-04-18T08:43:32.708Z</time></trkpt><trkpt lat="43.7650405" lon="11.2711778"><ele>50.0</ele><time>2026-04-18T08:43:33.708Z</time></trkpt><trkpt lat="43.7651128" lon="11.2712035"><ele>50.0</ele><time>2026-04-18T08:43:34.709Z</time></trkpt><trkpt lat="43.7651838" lon="11.2712202"><ele>50.00000000000001</ele><time>2026-04-18T08:43:35.709Z</time></trkpt><trkpt lat="43.7652502" lon="11.2712317"><ele>50.0</ele><time>2026-04-18T08:43:36.709Z</time></trkpt><trkpt lat="43.7653686" lon="11.2712504"><ele>50.6</ele><time>2026-04-18T08:43:38.708Z</time></trkpt><trkpt lat="43.7654519" lon="11.2712666"><ele>51.2</ele><time>2026-04-18T08:43:40.708Z</time></trkpt><trkpt lat="43.7655179" lon="11.2713"><ele>51.8</ele><time>2026-04-18T08:43:42.709Z</time></trkpt><trkpt lat="43.7655912" lon="11.2713318"><ele>52.4</ele><time>2026-04-18T08:43:44.708Z</time></trkpt><trkpt lat="43.7656841" lon="11.2713898"><ele>53.0</ele><time>2026-04-18T08:43:46.709Z</time></trkpt><trkpt lat="43.7657927" lon="11.2714919"><ele>53.50000000000001</ele><time>2026-04-18T08:43:48.708Z</time></trkpt><trkpt lat="43.7658274" lon="11.2715781"><ele>54.0</ele><time>2026-04-18T08:43:49.707Z</time></trkpt><trkpt lat="43.7658512" lon="11.2716686"><ele>54.5</ele><time>2026-04-18T08:43:50.709Z</time></trkpt><trkpt lat="43.7658447" lon="11.2717924"><ele>55.0</ele><time>2026-04-18T08:43:51.709Z</time></trkpt><trkpt lat="43.76584" lon="11.2719239"><ele>55.50000000000001</ele><time>2026-04-18T08:43:52.708Z</time></trkpt><trkpt lat="43.7658353" lon="11.2720625"><ele>56.0</ele><time>2026-04-18T08:43:53.709Z</time></trkpt><trkpt lat="43.7658211" lon="11.2722061"><ele>56.5</ele><time>2026-04-18T08:43:54.709Z</time></trkpt><trkpt lat="43.7658151" lon="11.2723611"><ele>57.0</ele><time>2026-04-18T08:43:55.709Z</time></trkpt><trkpt lat="43.7658171" lon="11.2725152"><ele>57.5</ele><time>2026-04-18T08:43:56.708Z</time></trkpt><trkpt lat="43.7658137" lon="11.2726784"><ele>58.0</ele><time>2026-04-18T08:43:57.709Z</time></trkpt><trkpt lat="43.7658034" lon="11.272841"><ele>58.0</ele><time>2026-04-18T08:43:58.709Z</time></trkpt><trkpt lat="43.7657995" lon="11.2730099"><ele>58.0</ele><time>2026-04-18T08:43:59.707Z</time></trkpt><trkpt lat="43.7657913" lon="11.2731746"><ele>58.0</ele><time>2026-04-18T08:44:00.708Z</time></trkpt><trkpt lat="43.7657871" lon="11.2733449"><ele>58.0</ele><time>2026-04-18T08:44:01.709Z</time></trkpt><trkpt lat="43.7657739" lon="11.2735259"><ele>58.0</ele><time>2026-04-18T08:44:02.708Z</time></trkpt><trkpt lat="43.7657603" lon="11.2737018"><ele>58.0</ele><time>2026-04-18T08:44:03.709Z</time></trkpt><trkpt lat="43.7657438" lon="11.2738872"><ele>58.0</ele><time>2026-04-18T08:44:04.709Z</time></trkpt><trkpt lat="43.7657237" lon="11.2740563"><ele>58.0</ele><time>2026-04-18T08:44:05.709Z</time></trkpt><trkpt lat="43.7657227" lon="11.2742134"><ele>58.0</ele><time>2026-04-18T08:44:06.708Z</time></trkpt><trkpt lat="43.765714" lon="11.2743543"><ele>58.0</ele><time>2026-04-18T08:44:07.708Z</time></trkpt><trkpt lat="43.7657046" lon="11.274496"><ele>58.0</ele><time>2026-04-18T08:44:08.709Z</time></trkpt><trkpt lat="43.7657016" lon="11.2746288"><ele>58.0</ele><time>2026-04-18T08:44:09.707Z</time></trkpt><trkpt lat="43.7656884" lon="11.2747676"><ele>58.0</ele><time>2026-04-18T08:44:10.708Z</time></trkpt><trkpt lat="43.7656819" lon="11.2749091"><ele>57.33333333333333</ele><time>2026-04-18T08:44:11.709Z</time></trkpt><trkpt lat="43.7656755" lon="11.2750432"><ele>56.666666666666664</ele><time>2026-04-18T08:44:12.709Z</time></trkpt><trkpt lat="43.7656683" lon="11.2751638"><ele>56.0</ele><time>2026-04-18T08:44:13.708Z</time></trkpt><trkpt lat="43.7656613" lon="11.2752748"><ele>55.33333333333333</ele><time>2026-04-18T08:44:14.707Z</time></trkpt><trkpt lat="43.7656547" lon="11.275375"><ele>54.666666666666664</ele><time>2026-04-18T08:44:15.709Z</time></trkpt><trkpt lat="43.7656493" lon="11.2754642"><ele>54.0</ele><time>2026-04-18T08:44:16.708Z</time></trkpt><trkpt lat="43.76564" lon="11.2756098"><ele>53.6</ele><time>2026-04-18T08:44:18.708Z</time></trkpt><trkpt lat="43.7656305" lon="11.2757166"><ele>53.2</ele><time>2026-04-18T08:44:20.709Z</time></trkpt><trkpt lat="43.7656026" lon="11.2758058"><ele>52.800000000000004</ele><time>2026-04-18T08:44:23.708Z</time></trkpt><trkpt lat="43.7655872" lon="11.2759339"><ele>52.400000000000006</ele><time>2026-04-18T08:44:27.707Z</time></trkpt><trkpt lat="43.7655955" lon="11.2761144"><ele>52.0</ele><time>2026-04-18T08:44:29.708Z</time></trkpt><trkpt lat="43.7656074" lon="11.2762236"><ele>51.99999999999999</ele><time>2026-04-18T08:44:30.709Z</time></trkpt><trkpt lat="43.7656252" lon="11.2763415"><ele>52.0</ele><time>2026-04-18T08:44:31.708Z</time></trkpt><trkpt lat="43.7656515" lon="11.2764526"><ele>52.0</ele><time>2026-04-18T08:44:32.708Z</time></trkpt><trkpt lat="43.7656909" lon="11.2765381"><ele>52.0</ele><time>2026-04-18T08:44:33.709Z</time></trkpt><trkpt lat="43.7657376" lon="11.2766176"><ele>51.99999999999999</ele><time>2026-04-18T08:44:34.709Z</time></trkpt><trkpt lat="43.7658077" lon="11.2766904"><ele>52.0</ele><time>2026-04-18T08:44:35.709Z</time></trkpt><trkpt lat="43.765882" lon="11.2767731"><ele>52.8</ele><time>2026-04-18T08:44:36.708Z</time></trkpt><trkpt lat="43.7659629" lon="11.2768778"><ele>53.6</ele><time>2026-04-18T08:44:37.709Z</time></trkpt><trkpt lat="43.766039" lon="11.2769754"><ele>54.39999999999999</ele><time>2026-04-18T08:44:38.709Z</time></trkpt><trkpt lat="43.7661144" lon="11.2770666"><ele>55.199999999999996</ele><time>2026-04-18T08:44:39.709Z</time></trkpt><trkpt lat="43.7661898" lon="11.2771459"><ele>56.0</ele><time>2026-04-18T08:44:40.709Z</time></trkpt><trkpt lat="43.7662557" lon="11.2772263"><ele>56.00000000000001</ele><time>2026-04-18T08:44:41.708Z</time></trkpt><trkpt lat="43.7663197" lon="11.2772965"><ele>56.0</ele><time>2026-04-18T08:44:42.708Z</time></trkpt><trkpt lat="43.7663809" lon="11.277353"><ele>56.0</ele><time>2026-04-18T08:44:43.708Z</time></trkpt><trkpt lat="43.7664292" lon="11.2774098"><ele>56.0</ele><time>2026-04-18T08:44:44.708Z</time></trkpt><trkpt lat="43.7664981" lon="11.2774934"><ele>56.00000000000001</ele><time>2026-04-18T08:44:46.707Z</time></trkpt><trkpt lat="43.7665555" lon="11.2775574"><ele>56.0</ele><time>2026-04-18T08:44:49.707Z</time></trkpt><trkpt lat="43.766678" lon="11.2776588"><ele>56.00000000000001</ele><time>2026-04-18T08:45:26.708Z</time></trkpt><trkpt lat="43.7667677" lon="11.2777785"><ele>56.0</ele><time>2026-04-18T08:45:28.709Z</time></trkpt><trkpt lat="43.766814" lon="11.2778556"><ele>56.0</ele><time>2026-04-18T08:45:29.707Z</time></trkpt><trkpt lat="43.7668637" lon="11.2779261"><ele>56.0</ele><time>2026-04-18T08:45:30.709Z</time></trkpt><trkpt lat="43.7669334" lon="11.278"><ele>56.00000000000001</ele><time>2026-04-18T08:45:31.709Z</time></trkpt><trkpt lat="43.7669884" lon="11.2780949"><ele>56.0</ele><time>2026-04-18T08:45:32.709Z</time></trkpt><trkpt lat="43.7670569" lon="11.2781838"><ele>55.599999999999994</ele><time>2026-04-18T08:45:33.708Z</time></trkpt><trkpt lat="43.7671367" lon="11.2782779"><ele>55.199999999999996</ele><time>2026-04-18T08:45:34.709Z</time></trkpt><trkpt lat="43.7672086" lon="11.2783652"><ele>54.800000000000004</ele><time>2026-04-18T08:45:35.709Z</time></trkpt><trkpt lat="43.7672826" lon="11.2784434"><ele>54.400000000000006</ele><time>2026-04-18T08:45:36.708Z</time></trkpt><trkpt lat="43.7673552" lon="11.2785341"><ele>54.0</ele><time>2026-04-18T08:45:37.709Z</time></trkpt><trkpt lat="43.7674305" lon="11.2786234"><ele>54.0</ele><time>2026-04-18T08:45:38.708Z</time></trkpt><trkpt lat="43.7675093" lon="11.2787183"><ele>54.00000000000001</ele><time>2026-04-18T08:45:39.709Z</time></trkpt><trkpt lat="43.7675889" lon="11.2788083"><ele>54.00000000000001</ele><time>2026-04-18T08:45:40.709Z</time></trkpt><trkpt lat="43.7676713" lon="11.2789042"><ele>54.0</ele><time>2026-04-18T08:45:41.709Z</time></trkpt><trkpt lat="43.7677547" lon="11.2790024"><ele>54.0</ele><time>2026-04-18T08:45:42.709Z</time></trkpt><trkpt lat="43.7678502" lon="11.2791006"><ele>54.6</ele><time>2026-04-18T08:45:43.708Z</time></trkpt><trkpt lat="43.7679359" lon="11.2791996"><ele>55.2</ele><time>2026-04-18T08:45:44.708Z</time></trkpt><trkpt lat="43.7680145" lon="11.2792949"><ele>55.800000000000004</ele><time>2026-04-18T08:45:45.708Z</time></trkpt><trkpt lat="43.7680828" lon="11.2793975"><ele>56.400000000000006</ele><time>2026-04-18T08:45:46.708Z</time></trkpt><trkpt lat="43.768153" lon="11.2795067"><ele>57.0</ele><time>2026-04-18T08:45:48.708Z</time></trkpt><trkpt lat="43.7682016" lon="11.2795742"><ele>57.0</ele><time>2026-04-18T08:45:51.709Z</time></trkpt><trkpt lat="43.7682659" lon="11.2796311"><ele>57.0</ele><time>2026-04-18T08:46:36.709Z</time></trkpt><trkpt lat="43.7683251" lon="11.2797108"><ele>57.0</ele><time>2026-04-18T08:46:37.708Z</time></trkpt><trkpt lat="43.768383" lon="11.279789"><ele>57.0</ele><time>2026-04-18T08:46:38.708Z</time></trkpt><trkpt lat="43.7684398" lon="11.279873"><ele>57.0</ele><time>2026-04-18T08:46:39.708Z</time></trkpt><trkpt lat="43.7685195" lon="11.2799498"><ele>57.0</ele><time>2026-04-18T08:46:40.709Z</time></trkpt><trkpt lat="43.7685981" lon="11.2800552"><ele>56.333333333333336</ele><time>2026-04-18T08:46:41.709Z</time></trkpt><trkpt lat="43.7686649" lon="11.2801285"><ele>55.66666666666667</ele><time>2026-04-18T08:46:42.709Z</time></trkpt><trkpt lat="43.7687276" lon="11.2801834"><ele>55.0</ele><time>2026-04-18T08:46:43.709Z</time></trkpt><trkpt lat="43.7687832" lon="11.2802318"><ele>54.333333333333336</ele><time>2026-04-18T08:46:44.708Z</time></trkpt><trkpt lat="43.7688399" lon="11.2802754"><ele>53.66666666666667</ele><time>2026-04-18T08:46:45.708Z</time></trkpt><trkpt lat="43.7689005" lon="11.2803332"><ele>53.0</ele><time>2026-04-18T08:46:47.708Z</time></trkpt><trkpt lat="43.768971" lon="11.2804053"><ele>53.0</ele><time>2026-04-18T08:46:50.709Z</time></trkpt><trkpt lat="43.7690888" lon="11.2804882"><ele>53.0</ele><time>2026-04-18T08:46:52.708Z</time></trkpt><trkpt lat="43.7691588" lon="11.2805707"><ele>53.0</ele><time>2026-04-18T08:46:53.709Z</time></trkpt><trkpt lat="43.7692251" lon="11.2806764"><ele>53.0</ele><time>2026-04-18T08:46:54.708Z</time></trkpt><trkpt lat="43.7692952" lon="11.2807597"><ele>53.0</ele><time>2026-04-18T08:46:55.708Z</time></trkpt><trkpt lat="43.7693569" lon="11.2808453"><ele>52.599999999999994</ele><time>2026-04-18T08:46:56.709Z</time></trkpt><trkpt lat="43.7694239" lon="11.2809418"><ele>52.199999999999996</ele><time>2026-04-18T08:46:58.708Z</time></trkpt><trkpt lat="43.7694735" lon="11.2810129"><ele>51.8</ele><time>2026-04-18T08:47:01.709Z</time></trkpt><trkpt lat="43.769554" lon="11.2811016"><ele>51.4</ele><time>2026-04-18T08:47:04.709Z</time></trkpt><trkpt lat="43.7696381" lon="11.2812088"><ele>51.0</ele><time>2026-04-18T08:47:06.709Z</time></trkpt><trkpt lat="43.7697405" lon="11.2813377"><ele>51.0</ele><time>2026-04-18T08:47:08.708Z</time></trkpt><trkpt lat="43.7698047" lon="11.2814107"><ele>51.0</ele><time>2026-04-18T08:47:09.708Z</time></trkpt><trkpt lat="43.7698756" lon="11.281474"><ele>51.0</ele><time>2026-04-18T08:47:10.709Z</time></trkpt><trkpt lat="43.7699447" lon="11.2815312"><ele>51.0</ele><time>2026-04-18T08:47:11.709Z</time></trkpt><trkpt lat="43.7700231" lon="11.281589"><ele>51.0</ele><time>2026-04-18T08:47:12.709Z</time></trkpt><trkpt lat="43.7701116" lon="11.2816486"><ele>51.0</ele><time>2026-04-18T08:47:13.708Z</time></trkpt><trkpt lat="43.7701982" lon="11.2817498"><ele>52.33333333333333</ele><time>2026-04-18T08:47:14.708Z</time></trkpt><trkpt lat="43.7703063" lon="11.2818528"><ele>53.666666666666664</ele><time>2026-04-18T08:47:15.708Z</time></trkpt><trkpt lat="43.7704233" lon="11.28202"><ele>55.0</ele><time>2026-04-18T08:47:16.708Z</time></trkpt><trkpt lat="43.7705512" lon="11.2821803"><ele>54.666666666666664</ele><time>2026-04-18T08:47:17.708Z</time></trkpt><trkpt lat="43.7706949" lon="11.2823423"><ele>54.33333333333333</ele><time>2026-04-18T08:47:18.708Z</time></trkpt><trkpt lat="43.7708525" lon="11.2825215"><ele>54.0</ele><time>2026-04-18T08:47:19.709Z</time></trkpt><trkpt lat="43.7709924" lon="11.2826817"><ele>54.0</ele><time>2026-04-18T08:47:20.709Z</time></trkpt><trkpt lat="43.7711228" lon="11.2828402"><ele>54.0</ele><time>2026-04-18T08:47:21.709Z</time></trkpt><trkpt lat="43.7712683" lon="11.2830071"><ele>54.0</ele><time>2026-04-18T08:47:22.708Z</time></trkpt><trkpt lat="43.7714311" lon="11.2831952"><ele>54.0</ele><time>2026-04-18T08:47:23.709Z</time></trkpt><trkpt lat="43.7716002" lon="11.2833934"><ele>54.0</ele><time>2026-04-18T08:47:24.708Z</time></trkpt><trkpt lat="43.7717557" lon="11.2835845"><ele>54.0</ele><time>2026-04-18T08:47:25.708Z</time></trkpt><trkpt lat="43.7719038" lon="11.2837642"><ele>54.25</ele><time>2026-04-18T08:47:26.708Z</time></trkpt><trkpt lat="43.7720356" lon="11.2839237"><ele>54.5</ele><time>2026-04-18T08:47:27.708Z</time></trkpt><trkpt lat="43.7721491" lon="11.2840549"><ele>54.75</ele><time>2026-04-18T08:47:28.708Z</time></trkpt><trkpt lat="43.7722372" lon="11.2841499"><ele>55.0</ele><time>2026-04-18T08:47:29.709Z</time></trkpt><trkpt lat="43.7723102" lon="11.2842247"><ele>54.99999999999999</ele><time>2026-04-18T08:47:30.709Z</time></trkpt><trkpt lat="43.7723603" lon="11.2842784"><ele>55.0</ele><time>2026-04-18T08:47:31.709Z</time></trkpt><trkpt lat="43.7724141" lon="11.284342"><ele>55.0</ele><time>2026-04-18T08:47:33.708Z</time></trkpt><trkpt lat="43.7724625" lon="11.284444"><ele>55.0</ele><time>2026-04-18T08:47:52.709Z</time></trkpt><trkpt lat="43.7725226" lon="11.2845311"><ele>54.99999999999999</ele><time>2026-04-18T08:47:53.708Z</time></trkpt><trkpt lat="43.7726107" lon="11.2846654"><ele>55.0</ele><time>2026-04-18T08:47:54.709Z</time></trkpt><trkpt lat="43.7727057" lon="11.2847807"><ele>55.0</ele><time>2026-04-18T08:47:55.708Z</time></trkpt><trkpt lat="43.7728215" lon="11.2849188"><ele>55.0</ele><time>2026-04-18T08:47:56.709Z</time></trkpt><trkpt lat="43.772944" lon="11.2850868"><ele>55.0</ele><time>2026-04-18T08:47:57.708Z</time></trkpt><trkpt lat="43.773077" lon="11.2852649"><ele>55.0</ele><time>2026-04-18T08:47:58.708Z</time></trkpt><trkpt lat="43.773215" lon="11.2854521"><ele>55.0</ele><time>2026-04-18T08:47:59.708Z</time></trkpt><trkpt lat="43.7733444" lon="11.2856162"><ele>55.0</ele><time>2026-04-18T08:48:00.708Z</time></trkpt><trkpt lat="43.7734632" lon="11.2857761"><ele>55.75</ele><time>2026-04-18T08:48:01.707Z</time></trkpt><trkpt lat="43.773578" lon="11.285909"><ele>56.5</ele><time>2026-04-18T08:48:02.709Z</time></trkpt><trkpt lat="43.7736777" lon="11.286034"><ele>57.25</ele><time>2026-04-18T08:48:03.709Z</time></trkpt><trkpt lat="43.7737722" lon="11.286144"><ele>58.0</ele><time>2026-04-18T08:48:04.708Z</time></trkpt><trkpt lat="43.7738546" lon="11.2862426"><ele>58.0</ele><time>2026-04-18T08:48:05.709Z</time></trkpt><trkpt lat="43.7739348" lon="11.2863283"><ele>58.0</ele><time>2026-04-18T08:48:06.709Z</time></trkpt><trkpt lat="43.7740015" lon="11.2864135"><ele>58.0</ele><time>2026-04-18T08:48:07.709Z</time></trkpt><trkpt lat="43.7740747" lon="11.2864991"><ele>58.0</ele><time>2026-04-18T08:48:08.709Z</time></trkpt><trkpt lat="43.7741569" lon="11.2865948"><ele>58.0</ele><time>2026-04-18T08:48:09.709Z</time></trkpt><trkpt lat="43.7742506" lon="11.2866991"><ele>57.75</ele><time>2026-04-18T08:48:10.709Z</time></trkpt><trkpt lat="43.7743497" lon="11.2868215"><ele>57.5</ele><time>2026-04-18T08:48:11.708Z</time></trkpt><trkpt lat="43.7744477" lon="11.286943"><ele>57.25</ele><time>2026-04-18T08:48:12.707Z</time></trkpt><trkpt lat="43.7745521" lon="11.2870559"><ele>57.0</ele><time>2026-04-18T08:48:13.708Z</time></trkpt><trkpt lat="43.7746539" lon="11.2871692"><ele>57.25</ele><time>2026-04-18T08:48:14.707Z</time></trkpt><trkpt lat="43.7747592" lon="11.2872806"><ele>57.5</ele><time>2026-04-18T08:48:15.708Z</time></trkpt><trkpt lat="43.7748595" lon="11.2873917"><ele>57.75</ele><time>2026-04-18T08:48:16.707Z</time></trkpt><trkpt lat="43.7749569" lon="11.2874966"><ele>58.0</ele><time>2026-04-18T08:48:17.708Z</time></trkpt><trkpt lat="43.7750568" lon="11.2875977"><ele>58.0</ele><time>2026-04-18T08:48:18.708Z</time></trkpt><trkpt lat="43.7751575" lon="11.2876869"><ele>58.0</ele><time>2026-04-18T08:48:19.709Z</time></trkpt><trkpt lat="43.7752509" lon="11.2877792"><ele>58.0</ele><time>2026-04-18T08:48:20.709Z</time></trkpt><trkpt lat="43.7753585" lon="11.2878703"><ele>58.0</ele><time>2026-04-18T08:48:21.709Z</time></trkpt><trkpt lat="43.77546" lon="11.2879603"><ele>57.75</ele><time>2026-04-18T08:48:22.709Z</time></trkpt><trkpt lat="43.775561" lon="11.2880491"><ele>57.5</ele><time>2026-04-18T08:48:23.708Z</time></trkpt><trkpt lat="43.7756582" lon="11.2881454"><ele>57.25</ele><time>2026-04-18T08:48:24.708Z</time></trkpt><trkpt lat="43.7757639" lon="11.2882278"><ele>57.0</ele><time>2026-04-18T08:48:25.707Z</time></trkpt><trkpt lat="43.7758582" lon="11.2883079"><ele>57.0</ele><time>2026-04-18T08:48:26.708Z</time></trkpt><trkpt lat="43.775955" lon="11.2883789"><ele>57.0</ele><time>2026-04-18T08:48:27.709Z</time></trkpt><trkpt lat="43.776057" lon="11.2884619"><ele>57.0</ele><time>2026-04-18T08:48:28.709Z</time></trkpt><trkpt lat="43.7761766" lon="11.2885579"><ele>57.0</ele><time>2026-04-18T08:48:29.709Z</time></trkpt><trkpt lat="43.7763112" lon="11.2886384"><ele>57.33333333333333</ele><time>2026-04-18T08:48:30.708Z</time></trkpt><trkpt lat="43.7764534" lon="11.2887501"><ele>57.666666666666664</ele><time>2026-04-18T08:48:31.708Z</time></trkpt><trkpt lat="43.7765999" lon="11.2888659"><ele>58.0</ele><time>2026-04-18T08:48:32.709Z</time></trkpt><trkpt lat="43.7767412" lon="11.2889942"><ele>58.33333333333333</ele><time>2026-04-18T08:48:33.709Z</time></trkpt><trkpt lat="43.7768798" lon="11.2891223"><ele>58.66666666666667</ele><time>2026-04-18T08:48:34.709Z</time></trkpt><trkpt lat="43.7770029" lon="11.2892304"><ele>59.0</ele><time>2026-04-18T08:48:35.708Z</time></trkpt><trkpt lat="43.7771203" lon="11.2893306"><ele>59.0</ele><time>2026-04-18T08:48:36.709Z</time></trkpt><trkpt lat="43.7772246" lon="11.2894273"><ele>59.0</ele><time>2026-04-18T08:48:37.709Z</time></trkpt><trkpt lat="43.7773251" lon="11.2895161"><ele>59.0</ele><time>2026-04-18T08:48:38.708Z</time></trkpt><trkpt lat="43.7774276" lon="11.2896053"><ele>59.0</ele><time>2026-04-18T08:48:39.708Z</time></trkpt><trkpt lat="43.7775251" lon="11.2896926"><ele>59.25</ele><time>2026-04-18T08:48:40.709Z</time></trkpt><trkpt lat="43.7776228" lon="11.2897831"><ele>59.5</ele><time>2026-04-18T08:48:41.709Z</time></trkpt><trkpt lat="43.7777238" lon="11.2898732"><ele>59.75</ele><time>2026-04-18T08:48:42.708Z</time></trkpt><trkpt lat="43.7778326" lon="11.2899715"><ele>60.0</ele><time>2026-04-18T08:48:43.708Z</time></trkpt><trkpt lat="43.777946" lon="11.2900678"><ele>60.0</ele><time>2026-04-18T08:48:44.709Z</time></trkpt><trkpt lat="43.778056" lon="11.2901638"><ele>60.0</ele><time>2026-04-18T08:48:45.709Z</time></trkpt><trkpt lat="43.7781658" lon="11.2902648"><ele>60.0</ele><time>2026-04-18T08:48:46.708Z</time></trkpt><trkpt lat="43.7782755" lon="11.290346"><ele>60.0</ele><time>2026-04-18T08:48:47.707Z</time></trkpt><trkpt lat="43.7783883" lon="11.2904262"><ele>60.0</ele><time>2026-04-18T08:48:48.708Z</time></trkpt><trkpt lat="43.7784747" lon="11.2904963"><ele>60.0</ele><time>2026-04-18T08:48:49.708Z</time></trkpt><trkpt lat="43.7785838" lon="11.2905685"><ele>60.0</ele><time>2026-04-18T08:48:50.709Z</time></trkpt><trkpt lat="43.7786959" lon="11.2906477"><ele>60.0</ele><time>2026-04-18T08:48:51.708Z</time></trkpt><trkpt lat="43.7787591" lon="11.2907538"><ele>60.0</ele><time>2026-04-18T08:48:52.709Z</time></trkpt><trkpt lat="43.7788338" lon="11.2908364"><ele>60.0</ele><time>2026-04-18T08:48:53.708Z</time></trkpt><trkpt lat="43.7788991" lon="11.2909046"><ele>60.0</ele><time>2026-04-18T08:48:54.708Z</time></trkpt><trkpt lat="43.7789612" lon="11.2909582"><ele>60.0</ele><time>2026-04-18T08:48:55.709Z</time></trkpt><trkpt lat="43.7790457" lon="11.2910005"><ele>60.0</ele><time>2026-04-18T08:48:57.709Z</time></trkpt><trkpt lat="43.7791277" lon="11.2910691"><ele>60.0</ele><time>2026-04-18T08:49:00.709Z</time></trkpt><trkpt lat="43.779195" lon="11.2911426"><ele>60.0</ele><time>2026-04-18T08:49:02.708Z</time></trkpt><trkpt lat="43.779301" lon="11.2912652"><ele>60.2</ele><time>2026-04-18T08:49:04.709Z</time></trkpt><trkpt lat="43.7793916" lon="11.2913174"><ele>60.4</ele><time>2026-04-18T08:49:05.708Z</time></trkpt><trkpt lat="43.7794825" lon="11.2913722"><ele>60.599999999999994</ele><time>2026-04-18T08:49:06.709Z</time></trkpt><trkpt lat="43.7795824" lon="11.2914283"><ele>60.8</ele><time>2026-04-18T08:49:07.708Z</time></trkpt><trkpt lat="43.7796779" lon="11.2914873"><ele>61.0</ele><time>2026-04-18T08:49:08.708Z</time></trkpt><trkpt lat="43.7797669" lon="11.2915623"><ele>61.4</ele><time>2026-04-18T08:49:09.708Z</time></trkpt><trkpt lat="43.7798533" lon="11.2916268"><ele>61.8</ele><time>2026-04-18T08:49:10.708Z</time></trkpt><trkpt lat="43.779916" lon="11.2916691"><ele>62.199999999999996</ele><time>2026-04-18T08:49:11.708Z</time></trkpt><trkpt lat="43.7799964" lon="11.2917199"><ele>62.599999999999994</ele><time>2026-04-18T08:49:13.708Z</time></trkpt><trkpt lat="43.7800709" lon="11.2918696"><ele>63.0</ele><time>2026-04-18T08:49:15.709Z</time></trkpt><trkpt lat="43.7801675" lon="11.2919518"><ele>62.5</ele><time>2026-04-18T08:49:16.709Z</time></trkpt><trkpt lat="43.7802633" lon="11.2920339"><ele>62.0</ele><time>2026-04-18T08:49:17.709Z</time></trkpt><trkpt lat="43.7803696" lon="11.2921229"><ele>61.5</ele><time>2026-04-18T08:49:18.709Z</time></trkpt><trkpt lat="43.780466" lon="11.2922118"><ele>61.0</ele><time>2026-04-18T08:49:19.709Z</time></trkpt><trkpt lat="43.7805658" lon="11.2922933"><ele>61.0</ele><time>2026-04-18T08:49:20.708Z</time></trkpt><trkpt lat="43.7806612" lon="11.2923604"><ele>60.99999999999999</ele><time>2026-04-18T08:49:21.708Z</time></trkpt><trkpt lat="43.7807354" lon="11.2924301"><ele>60.99999999999999</ele><time>2026-04-18T08:49:22.708Z</time></trkpt><trkpt lat="43.7808085" lon="11.2924818"><ele>61.0</ele><time>2026-04-18T08:49:23.708Z</time></trkpt><trkpt lat="43.7808868" lon="11.2925604"><ele>61.0</ele><time>2026-04-18T08:49:24.708Z</time></trkpt><trkpt lat="43.7809803" lon="11.2926359"><ele>61.75</ele><time>2026-04-18T08:49:25.709Z</time></trkpt><trkpt lat="43.7810828" lon="11.2927157"><ele>62.5</ele><time>2026-04-18T08:49:26.709Z</time></trkpt><trkpt lat="43.7811811" lon="11.2928052"><ele>63.25</ele><time>2026-04-18T08:49:27.709Z</time></trkpt><trkpt lat="43.7812818" lon="11.2928938"><ele>64.0</ele><time>2026-04-18T08:49:28.709Z</time></trkpt><trkpt lat="43.781388" lon="11.2929901"><ele>64.0</ele><time>2026-04-18T08:49:29.709Z</time></trkpt><trkpt lat="43.7815076" lon="11.293092"><ele>64.0</ele><time>2026-04-18T08:49:30.709Z</time></trkpt><trkpt lat="43.7816555" lon="11.2932049"><ele>64.0</ele><time>2026-04-18T08:49:31.709Z</time></trkpt><trkpt lat="43.78184" lon="11.2933393"><ele>64.0</ele><time>2026-04-18T08:49:32.709Z</time></trkpt><trkpt lat="43.7820438" lon="11.2934843"><ele>64.0</ele><time>2026-04-18T08:49:33.709Z</time></trkpt><trkpt lat="43.7822782" lon="11.2936404"><ele>64.0</ele><time>2026-04-18T08:49:34.708Z</time></trkpt><trkpt lat="43.7825027" lon="11.2937783"><ele>64.0</ele><time>2026-04-18T08:49:35.708Z</time></trkpt><trkpt lat="43.7827129" lon="11.2938935"><ele>64.0</ele><time>2026-04-18T08:49:36.708Z</time></trkpt><trkpt lat="43.7829265" lon="11.293984"><ele>64.0</ele><time>2026-04-18T08:49:37.709Z</time></trkpt><trkpt lat="43.7831499" lon="11.2940635"><ele>64.0</ele><time>2026-04-18T08:49:38.708Z</time></trkpt><trkpt lat="43.7833735" lon="11.2941267"><ele>64.0</ele><time>2026-04-18T08:49:39.708Z</time></trkpt><trkpt lat="43.7835927" lon="11.2941824"><ele>64.33333333333333</ele><time>2026-04-18T08:49:40.709Z</time></trkpt><trkpt lat="43.7837857" lon="11.2942242"><ele>64.66666666666667</ele><time>2026-04-18T08:49:41.708Z</time></trkpt><trkpt lat="43.7839667" lon="11.2942785"><ele>65.0</ele><time>2026-04-18T08:49:42.708Z</time></trkpt><trkpt lat="43.7841352" lon="11.2942939"><ele>65.0</ele><time>2026-04-18T08:49:43.708Z</time></trkpt><trkpt lat="43.7843272" lon="11.2943249"><ele>65.0</ele><time>2026-04-18T08:49:44.708Z</time></trkpt><trkpt lat="43.7844985" lon="11.2943441"><ele>65.0</ele><time>2026-04-18T08:49:45.708Z</time></trkpt><trkpt lat="43.7846534" lon="11.2943647"><ele>65.4</ele><time>2026-04-18T08:49:46.709Z</time></trkpt><trkpt lat="43.7847697" lon="11.2943807"><ele>65.8</ele><time>2026-04-18T08:49:47.707Z</time></trkpt><trkpt lat="43.7848535" lon="11.2943463"><ele>66.2</ele><time>2026-04-18T08:49:48.709Z</time></trkpt><trkpt lat="43.7849518" lon="11.2943506"><ele>66.6</ele><time>2026-04-18T08:49:49.708Z</time></trkpt><trkpt lat="43.7850304" lon="11.2943761"><ele>67.0</ele><time>2026-04-18T08:49:50.707Z</time></trkpt><trkpt lat="43.7851122" lon="11.2943965"><ele>67.0</ele><time>2026-04-18T08:49:51.709Z</time></trkpt><trkpt lat="43.7851772" lon="11.2944138"><ele>67.0</ele><time>2026-04-18T08:49:52.709Z</time></trkpt><trkpt lat="43.7852411" lon="11.2944413"><ele>67.0</ele><time>2026-04-18T08:49:53.708Z</time></trkpt><trkpt lat="43.7853081" lon="11.2944772"><ele>67.0</ele><time>2026-04-18T08:49:54.709Z</time></trkpt><trkpt lat="43.7853717" lon="11.2945964"><ele>67.0</ele><time>2026-04-18T08:49:56.709Z</time></trkpt><trkpt lat="43.7854109" lon="11.2946957"><ele>67.0</ele><time>2026-04-18T08:49:58.709Z</time></trkpt><trkpt lat="43.7855185" lon="11.2948095"><ele>67.25</ele><time>2026-04-18T08:50:00.708Z</time></trkpt><trkpt lat="43.78558" lon="11.2948947"><ele>67.5</ele><time>2026-04-18T08:50:01.709Z</time></trkpt><trkpt lat="43.7857122" lon="11.295004"><ele>67.75</ele><time>2026-04-18T08:50:02.709Z</time></trkpt><trkpt lat="43.7858195" lon="11.2950982"><ele>68.0</ele><time>2026-04-18T08:50:03.709Z</time></trkpt><trkpt lat="43.7859277" lon="11.2951851"><ele>69.0</ele><time>2026-04-18T08:50:04.708Z</time></trkpt><trkpt lat="43.7860395" lon="11.2952747"><ele>70.0</ele><time>2026-04-18T08:50:05.709Z</time></trkpt><trkpt lat="43.7861615" lon="11.2953816"><ele>71.0</ele><time>2026-04-18T08:50:06.708Z</time></trkpt><trkpt lat="43.7862945" lon="11.2955066"><ele>72.0</ele><time>2026-04-18T08:50:07.707Z</time></trkpt><trkpt lat="43.7864277" lon="11.2956138"><ele>74.5</ele><time>2026-04-18T08:50:08.709Z</time></trkpt><trkpt lat="43.7865668" lon="11.2957403"><ele>77.0</ele><time>2026-04-18T08:50:09.708Z</time></trkpt><trkpt lat="43.7866967" lon="11.2958374"><ele>79.5</ele><time>2026-04-18T08:50:10.709Z</time></trkpt><trkpt lat="43.7868192" lon="11.2959026"><ele>82.0</ele><time>2026-04-18T08:50:11.708Z</time></trkpt><trkpt lat="43.7869474" lon="11.2959604"><ele>83.66666666666666</ele><time>2026-04-18T08:50:12.708Z</time></trkpt><trkpt lat="43.7871071" lon="11.2959681"><ele>85.33333333333333</ele><time>2026-04-18T08:50:13.708Z</time></trkpt><trkpt lat="43.7872952" lon="11.2959284"><ele>87.0</ele><time>2026-04-18T08:50:14.709Z</time></trkpt><trkpt lat="43.7874769" lon="11.2959144"><ele>87.0</ele><time>2026-04-18T08:50:15.709Z</time></trkpt><trkpt lat="43.7876462" lon="11.2959104"><ele>87.0</ele><time>2026-04-18T08:50:16.708Z</time></trkpt><trkpt lat="43.7878181" lon="11.2959477"><ele>87.0</ele><time>2026-04-18T08:50:17.709Z</time></trkpt><trkpt lat="43.7879702" lon="11.2960215"><ele>88.5</ele><time>2026-04-18T08:50:18.708Z</time></trkpt><trkpt lat="43.7881228" lon="11.2960869"><ele>90.0</ele><time>2026-04-18T08:50:19.709Z</time></trkpt><trkpt lat="43.788243" lon="11.2961976"><ele>91.5</ele><time>2026-04-18T08:50:20.709Z</time></trkpt><trkpt lat="43.7883721" lon="11.2962823"><ele>93.0</ele><time>2026-04-18T08:50:21.708Z</time></trkpt><trkpt lat="43.788503" lon="11.2963797"><ele>94.66666666666666</ele><time>2026-04-18T08:50:22.707Z</time></trkpt><trkpt lat="43.7885459" lon="11.296611"><ele>96.33333333333333</ele><time>2026-04-18T08:50:23.707Z</time></trkpt><trkpt lat="43.7886249" lon="11.2968083"><ele>98.0</ele><time>2026-04-18T08:50:24.707Z</time></trkpt><trkpt lat="43.7887141" lon="11.2970069"><ele>98.0</ele><time>2026-04-18T08:50:25.708Z</time></trkpt><trkpt lat="43.7888139" lon="11.2972008"><ele>98.0</ele><time>2026-04-18T08:50:26.708Z</time></trkpt><trkpt lat="43.7889975" lon="11.2973475"><ele>98.0</ele><time>2026-04-18T08:50:27.708Z</time></trkpt><trkpt lat="43.7891374" lon="11.2975107"><ele>102.0</ele><time>2026-04-18T08:50:28.707Z</time></trkpt><trkpt lat="43.7892857" lon="11.2976897"><ele>106.0</ele><time>2026-04-18T08:50:29.708Z</time></trkpt><trkpt lat="43.789432" lon="11.2978463"><ele>110.0</ele><time>2026-04-18T08:50:30.708Z</time></trkpt><trkpt lat="43.7895623" lon="11.2979909"><ele>112.2</ele><time>2026-04-18T08:50:31.708Z</time></trkpt><trkpt lat="43.7896845" lon="11.2981161"><ele>114.4</ele><time>2026-04-18T08:50:32.708Z</time></trkpt><trkpt lat="43.7897308" lon="11.2982092"><ele>116.6</ele><time>2026-04-18T08:50:33.709Z</time></trkpt><trkpt lat="43.7897367" lon="11.2983101"><ele>118.8</ele><time>2026-04-18T08:50:34.709Z</time></trkpt><trkpt lat="43.7896592" lon="11.298374"><ele>121.0</ele><time>2026-04-18T08:50:36.709Z</time></trkpt><trkpt lat="43.7895847" lon="11.2983575"><ele>121.0</ele><time>2026-04-18T08:50:37.708Z</time></trkpt><trkpt lat="43.7893939" lon="11.2981738"><ele>121.0</ele><time>2026-04-18T08:50:38.707Z</time></trkpt><trkpt lat="43.7892569" lon="11.2980652"><ele>121.0</ele><time>2026-04-18T08:50:39.708Z</time></trkpt><trkpt lat="43.7891337" lon="11.2979648"><ele>121.4</ele><time>2026-04-18T08:50:40.708Z</time></trkpt><trkpt lat="43.7890302" lon="11.2978925"><ele>121.8</ele><time>2026-04-18T08:50:41.707Z</time></trkpt><trkpt lat="43.788952" lon="11.2978797"><ele>122.20000000000002</ele><time>2026-04-18T08:50:42.708Z</time></trkpt><trkpt lat="43.7888883" lon="11.2979955"><ele>122.60000000000001</ele><time>2026-04-18T08:50:44.709Z</time></trkpt><trkpt lat="43.7888802" lon="11.2981057"><ele>123.0</ele><time>2026-04-18T08:50:45.709Z</time></trkpt><trkpt lat="43.7889003" lon="11.298222"><ele>123.0</ele><time>2026-04-18T08:50:46.708Z</time></trkpt><trkpt lat="43.7890827" lon="11.2983868"><ele>123.0</ele><time>2026-04-18T08:50:47.708Z</time></trkpt><trkpt lat="43.7891727" lon="11.2985517"><ele>123.0</ele><time>2026-04-18T08:50:48.708Z</time></trkpt><trkpt lat="43.7892746" lon="11.2987415"><ele>126.33333333333334</ele><time>2026-04-18T08:50:49.708Z</time></trkpt><trkpt lat="43.7893915" lon="11.2989459"><ele>129.66666666666669</ele><time>2026-04-18T08:50:50.708Z</time></trkpt><trkpt lat="43.7895188" lon="11.2991671"><ele>133.0</ele><time>2026-04-18T08:50:51.707Z</time></trkpt><trkpt lat="43.7896319" lon="11.2993604"><ele>133.0</ele><time>2026-04-18T08:50:52.709Z</time></trkpt><trkpt lat="43.7897487" lon="11.2995569"><ele>133.0</ele><time>2026-04-18T08:50:53.708Z</time></trkpt><trkpt lat="43.7898564" lon="11.2997459"><ele>133.0</ele><time>2026-04-18T08:50:54.709Z</time></trkpt><trkpt lat="43.7899599" lon="11.299916"><ele>134.0</ele><time>2026-04-18T08:50:55.709Z</time></trkpt><trkpt lat="43.7900656" lon="11.3000651"><ele>135.0</ele><time>2026-04-18T08:50:56.709Z</time></trkpt><trkpt lat="43.7901743" lon="11.3001964"><ele>136.0</ele><time>2026-04-18T08:50:57.709Z</time></trkpt><trkpt lat="43.7903572" lon="11.3002559"><ele>136.33333333333334</ele><time>2026-04-18T08:50:58.708Z</time></trkpt><trkpt lat="43.7905258" lon="11.3002933"><ele>136.66666666666666</ele><time>2026-04-18T08:50:59.708Z</time></trkpt><trkpt lat="43.7906955" lon="11.3003251"><ele>137.0</ele><time>2026-04-18T08:51:00.709Z</time></trkpt><trkpt lat="43.7908618" lon="11.3003451"><ele>137.0</ele><time>2026-04-18T08:51:01.708Z</time></trkpt><trkpt lat="43.7909957" lon="11.3004439"><ele>137.0</ele><time>2026-04-18T08:51:02.708Z</time></trkpt><trkpt lat="43.7911389" lon="11.3005506"><ele>137.0</ele><time>2026-04-18T08:51:03.708Z</time></trkpt><trkpt lat="43.7912855" lon="11.3006651"><ele>138.66666666666666</ele><time>2026-04-18T08:51:04.708Z</time></trkpt><trkpt lat="43.7913951" lon="11.3008327"><ele>140.33333333333334</ele><time>2026-04-18T08:51:05.708Z</time></trkpt><trkpt lat="43.7914985" lon="11.3010054"><ele>142.0</ele><time>2026-04-18T08:51:06.707Z</time></trkpt><trkpt lat="43.791581" lon="11.3012097"><ele>143.0</ele><time>2026-04-18T08:51:07.708Z</time></trkpt><trkpt lat="43.7916752" lon="11.3014227"><ele>144.0</ele><time>2026-04-18T08:51:08.707Z</time></trkpt><trkpt lat="43.7917778" lon="11.301614"><ele>145.0</ele><time>2026-04-18T08:51:09.709Z</time></trkpt><trkpt lat="43.7918748" lon="11.3017736"><ele>145.25</ele><time>2026-04-18T08:51:10.709Z</time></trkpt><trkpt lat="43.791974" lon="11.3019017"><ele>145.5</ele><time>2026-04-18T08:51:11.709Z</time></trkpt><trkpt lat="43.7920924" lon="11.301998"><ele>145.75</ele><time>2026-04-18T08:51:12.709Z</time></trkpt><trkpt lat="43.7922422" lon="11.302067"><ele>146.0</ele><time>2026-04-18T08:51:13.708Z</time></trkpt><trkpt lat="43.792397" lon="11.3021385"><ele>146.0</ele><time>2026-04-18T08:51:14.709Z</time></trkpt><trkpt lat="43.792571" lon="11.302183"><ele>146.0</ele><time>2026-04-18T08:51:15.708Z</time></trkpt><trkpt lat="43.7927181" lon="11.3022365"><ele>146.0</ele><time>2026-04-18T08:51:16.708Z</time></trkpt><trkpt lat="43.7928705" lon="11.3022908"><ele>149.0</ele><time>2026-04-18T08:51:17.708Z</time></trkpt><trkpt lat="43.7930269" lon="11.3023494"><ele>152.0</ele><time>2026-04-18T08:51:18.709Z</time></trkpt><trkpt lat="43.7931805" lon="11.3024329"><ele>155.0</ele><time>2026-04-18T08:51:19.709Z</time></trkpt><trkpt lat="43.7933375" lon="11.3024997"><ele>155.0</ele><time>2026-04-18T08:51:20.709Z</time></trkpt><trkpt lat="43.7934766" lon="11.3025738"><ele>155.0</ele><time>2026-04-18T08:51:21.709Z</time></trkpt><trkpt lat="43.7936089" lon="11.3026488"><ele>155.0</ele><time>2026-04-18T08:51:22.708Z</time></trkpt><trkpt lat="43.7937116" lon="11.3027472"><ele>155.0</ele><time>2026-04-18T08:51:23.708Z</time></trkpt><trkpt lat="43.7937977" lon="11.302864"><ele>154.25</ele><time>2026-04-18T08:51:24.708Z</time></trkpt><trkpt lat="43.7938711" lon="11.3030078"><ele>153.5</ele><time>2026-04-18T08:51:25.708Z</time></trkpt><trkpt lat="43.7939562" lon="11.3031573"><ele>152.75</ele><time>2026-04-18T08:51:26.709Z</time></trkpt><trkpt lat="43.7940337" lon="11.3033269"><ele>152.0</ele><time>2026-04-18T08:51:27.708Z</time></trkpt><trkpt lat="43.7940912" lon="11.3034975"><ele>155.0</ele><time>2026-04-18T08:51:28.708Z</time></trkpt><trkpt lat="43.7940942" lon="11.3036463"><ele>158.0</ele><time>2026-04-18T08:51:29.708Z</time></trkpt><trkpt lat="43.7940958" lon="11.3037551"><ele>161.0</ele><time>2026-04-18T08:51:30.709Z</time></trkpt><trkpt lat="43.7940745" lon="11.3038608"><ele>164.0</ele><time>2026-04-18T08:51:32.709Z</time></trkpt><trkpt lat="43.7940674" lon="11.3039847"><ele>167.0</ele><time>2026-04-18T08:51:36.709Z</time></trkpt><trkpt lat="43.7940908" lon="11.3041404"><ele>168.8</ele><time>2026-04-18T08:51:38.709Z</time></trkpt><trkpt lat="43.7941214" lon="11.3043173"><ele>170.6</ele><time>2026-04-18T08:51:40.708Z</time></trkpt><trkpt lat="43.7941487" lon="11.3044102"><ele>172.4</ele><time>2026-04-18T08:51:41.709Z</time></trkpt><trkpt lat="43.794185" lon="11.3045256"><ele>174.20000000000002</ele><time>2026-04-18T08:51:42.708Z</time></trkpt><trkpt lat="43.7942013" lon="11.3046661"><ele>176.0</ele><time>2026-04-18T08:51:43.708Z</time></trkpt><trkpt lat="43.7942031" lon="11.3048158"><ele>176.5</ele><time>2026-04-18T08:51:44.709Z</time></trkpt><trkpt lat="43.7942259" lon="11.3049617"><ele>177.0</ele><time>2026-04-18T08:51:45.707Z</time></trkpt><trkpt lat="43.7942686" lon="11.3050986"><ele>177.5</ele><time>2026-04-18T08:51:46.709Z</time></trkpt><trkpt lat="43.7943316" lon="11.3052371"><ele>178.0</ele><time>2026-04-18T08:51:47.708Z</time></trkpt><trkpt lat="43.7944077" lon="11.3053732"><ele>181.25</ele><time>2026-04-18T08:51:48.709Z</time></trkpt><trkpt lat="43.7944968" lon="11.3055071"><ele>184.5</ele><time>2026-04-18T08:51:49.708Z</time></trkpt><trkpt lat="43.7945962" lon="11.3056582"><ele>187.75</ele><time>2026-04-18T08:51:50.707Z</time></trkpt><trkpt lat="43.7946818" lon="11.3058124"><ele>191.0</ele><time>2026-04-18T08:51:51.708Z</time></trkpt><trkpt lat="43.7947575" lon="11.3059597"><ele>191.0</ele><time>2026-04-18T08:51:52.709Z</time></trkpt><trkpt lat="43.7948085" lon="11.306084"><ele>191.0</ele><time>2026-04-18T08:51:53.709Z</time></trkpt><trkpt lat="43.7948381" lon="11.3061734"><ele>191.0</ele><time>2026-04-18T08:51:54.709Z</time></trkpt><trkpt lat="43.7948738" lon="11.3062567"><ele>191.0</ele><time>2026-04-18T08:51:57.708Z</time></trkpt><trkpt lat="43.7949306" lon="11.3063741"><ele>191.0</ele><time>2026-04-18T08:53:19.707Z</time></trkpt><trkpt lat="43.7949673" lon="11.3064514"><ele>183.0</ele><time>2026-04-18T08:53:21.707Z</time></trkpt></trkseg></trk></gpx>